<?xml version="1.0" encoding="UTF-8" standalone="no" ?>
<gpx xmlns="http://www.topografix.com/GPX/1/1" xmlns:xsi="http://www.w3.org/2001/XMLSchema-instance" xsi:schemaLocation="http://www.topografix.com/GPX/1/1 http://www.topografix.com/GPX/1/1/gpx.xsd" version="1.1" creator="VisuGPX - https://www.visugpx.com">
  <metadata>
    <name>Les Ruines de La Roque sur Pernes</name>
    <desc><![CDATA[Les Ruines de La Roque sur Pernes]]></desc>
  </metadata>
  <trk>
    <name><![CDATA[23-NOV-15 14:46:12]]></name>
    <trkseg>
      <trkpt lat="43.97824" lon="5.10841">
        <ele>261.62</ele>
        <time>2015-11-23T08:32:45Z</time>
      </trkpt>
      <trkpt lat="43.97824" lon="5.10841">
        <ele>262.58</ele>
        <time>2015-11-23T08:32:47Z</time>
      </trkpt>
      <trkpt lat="43.97824" lon="5.10842">
        <ele>264.02</ele>
        <time>2015-11-23T08:32:50Z</time>
      </trkpt>
      <trkpt lat="43.97825" lon="5.10843">
        <ele>266.9</ele>
        <time>2015-11-23T08:32:57Z</time>
      </trkpt>
      <trkpt lat="43.97825" lon="5.10843">
        <ele>271.23</ele>
        <time>2015-11-23T08:33:08Z</time>
      </trkpt>
      <trkpt lat="43.9782" lon="5.10842">
        <ele>272.67</ele>
        <time>2015-11-23T08:33:23Z</time>
      </trkpt>
      <trkpt lat="43.97818" lon="5.10842">
        <ele>273.63</ele>
        <time>2015-11-23T08:33:35Z</time>
      </trkpt>
      <trkpt lat="43.97819" lon="5.10845">
        <ele>275.56</ele>
        <time>2015-11-23T08:33:49Z</time>
      </trkpt>
      <trkpt lat="43.97821" lon="5.10843">
        <ele>276.52</ele>
        <time>2015-11-23T08:33:59Z</time>
      </trkpt>
      <trkpt lat="43.9782" lon="5.10841">
        <ele>277.48</ele>
        <time>2015-11-23T08:34:09Z</time>
      </trkpt>
      <trkpt lat="43.9782" lon="5.10842">
        <ele>277</ele>
        <time>2015-11-23T08:34:20Z</time>
      </trkpt>
      <trkpt lat="43.97823" lon="5.10844">
        <ele>277.48</ele>
        <time>2015-11-23T08:34:33Z</time>
      </trkpt>
      <trkpt lat="43.97823" lon="5.10842">
        <ele>277.48</ele>
        <time>2015-11-23T08:34:51Z</time>
      </trkpt>
      <trkpt lat="43.97821" lon="5.10843">
        <ele>277</ele>
        <time>2015-11-23T08:35:05Z</time>
      </trkpt>
      <trkpt lat="43.9782" lon="5.10841">
        <ele>277</ele>
        <time>2015-11-23T08:35:19Z</time>
      </trkpt>
      <trkpt lat="43.97821" lon="5.10842">
        <ele>277.48</ele>
        <time>2015-11-23T08:35:33Z</time>
      </trkpt>
      <trkpt lat="43.97819" lon="5.10842">
        <ele>277</ele>
        <time>2015-11-23T08:35:47Z</time>
      </trkpt>
      <trkpt lat="43.9782" lon="5.10846">
        <ele>277</ele>
        <time>2015-11-23T08:36:04Z</time>
      </trkpt>
      <trkpt lat="43.97819" lon="5.10847">
        <ele>277</ele>
        <time>2015-11-23T08:36:16Z</time>
      </trkpt>
      <trkpt lat="43.97819" lon="5.10848">
        <ele>276.52</ele>
        <time>2015-11-23T08:36:32Z</time>
      </trkpt>
      <trkpt lat="43.97819" lon="5.10846">
        <ele>276.52</ele>
        <time>2015-11-23T08:36:44Z</time>
      </trkpt>
      <trkpt lat="43.9782" lon="5.10846">
        <ele>276.52</ele>
        <time>2015-11-23T08:37:01Z</time>
      </trkpt>
      <trkpt lat="43.97817" lon="5.10844">
        <ele>276.52</ele>
        <time>2015-11-23T08:37:27Z</time>
      </trkpt>
      <trkpt lat="43.97818" lon="5.10848">
        <ele>276.52</ele>
        <time>2015-11-23T08:37:44Z</time>
      </trkpt>
      <trkpt lat="43.97814" lon="5.10848">
        <ele>276.04</ele>
        <time>2015-11-23T08:38:01Z</time>
      </trkpt>
      <trkpt lat="43.97813" lon="5.10847">
        <ele>276.04</ele>
        <time>2015-11-23T08:38:23Z</time>
      </trkpt>
      <trkpt lat="43.97809" lon="5.10856">
        <ele>275.07</ele>
        <time>2015-11-23T08:38:35Z</time>
      </trkpt>
      <trkpt lat="43.97806" lon="5.1086">
        <ele>274.59</ele>
        <time>2015-11-23T08:38:41Z</time>
      </trkpt>
      <trkpt lat="43.97798" lon="5.10877">
        <ele>274.11</ele>
        <time>2015-11-23T08:38:55Z</time>
      </trkpt>
      <trkpt lat="43.97796" lon="5.1089">
        <ele>274.59</ele>
        <time>2015-11-23T08:39:10Z</time>
      </trkpt>
      <trkpt lat="43.97793" lon="5.10894">
        <ele>274.59</ele>
        <time>2015-11-23T08:39:14Z</time>
      </trkpt>
      <trkpt lat="43.97784" lon="5.10903">
        <ele>275.07</ele>
        <time>2015-11-23T08:39:25Z</time>
      </trkpt>
      <trkpt lat="43.97782" lon="5.10905">
        <ele>275.56</ele>
        <time>2015-11-23T08:39:27Z</time>
      </trkpt>
      <trkpt lat="43.97769" lon="5.10916">
        <ele>276.52</ele>
        <time>2015-11-23T08:39:43Z</time>
      </trkpt>
      <trkpt lat="43.97764" lon="5.10915">
        <ele>275.07</ele>
        <time>2015-11-23T08:39:57Z</time>
      </trkpt>
      <trkpt lat="43.97762" lon="5.10918">
        <ele>275.07</ele>
        <time>2015-11-23T08:40:01Z</time>
      </trkpt>
      <trkpt lat="43.97755" lon="5.1093">
        <ele>274.59</ele>
        <time>2015-11-23T08:40:14Z</time>
      </trkpt>
      <trkpt lat="43.97746" lon="5.1094">
        <ele>273.63</ele>
        <time>2015-11-23T08:40:31Z</time>
      </trkpt>
      <trkpt lat="43.97739" lon="5.10945">
        <ele>272.67</ele>
        <time>2015-11-23T08:40:44Z</time>
      </trkpt>
      <trkpt lat="43.97727" lon="5.10952">
        <ele>271.23</ele>
        <time>2015-11-23T08:40:57Z</time>
      </trkpt>
      <trkpt lat="43.97716" lon="5.10954">
        <ele>270.27</ele>
        <time>2015-11-23T08:41:09Z</time>
      </trkpt>
      <trkpt lat="43.97705" lon="5.10959">
        <ele>269.79</ele>
        <time>2015-11-23T08:41:22Z</time>
      </trkpt>
      <trkpt lat="43.97698" lon="5.10963">
        <ele>269.31</ele>
        <time>2015-11-23T08:41:33Z</time>
      </trkpt>
      <trkpt lat="43.97686" lon="5.10971">
        <ele>269.31</ele>
        <time>2015-11-23T08:41:46Z</time>
      </trkpt>
      <trkpt lat="43.97671" lon="5.10982">
        <ele>269.31</ele>
        <time>2015-11-23T08:42:04Z</time>
      </trkpt>
      <trkpt lat="43.97662" lon="5.10989">
        <ele>270.27</ele>
        <time>2015-11-23T08:42:17Z</time>
      </trkpt>
      <trkpt lat="43.97654" lon="5.10996">
        <ele>272.67</ele>
        <time>2015-11-23T08:42:32Z</time>
      </trkpt>
      <trkpt lat="43.97645" lon="5.11007">
        <ele>274.59</ele>
        <time>2015-11-23T08:42:45Z</time>
      </trkpt>
      <trkpt lat="43.97638" lon="5.11015">
        <ele>276.04</ele>
        <time>2015-11-23T08:42:57Z</time>
      </trkpt>
      <trkpt lat="43.97635" lon="5.11024">
        <ele>277.96</ele>
        <time>2015-11-23T08:43:09Z</time>
      </trkpt>
      <trkpt lat="43.97629" lon="5.11033">
        <ele>280.36</ele>
        <time>2015-11-23T08:43:21Z</time>
      </trkpt>
      <trkpt lat="43.97623" lon="5.11037">
        <ele>281.8</ele>
        <time>2015-11-23T08:43:36Z</time>
      </trkpt>
      <trkpt lat="43.97618" lon="5.11036">
        <ele>282.77</ele>
        <time>2015-11-23T08:44:04Z</time>
      </trkpt>
      <trkpt lat="43.97606" lon="5.11042">
        <ele>285.65</ele>
        <time>2015-11-23T08:44:20Z</time>
      </trkpt>
      <trkpt lat="43.97596" lon="5.11053">
        <ele>288.53</ele>
        <time>2015-11-23T08:44:36Z</time>
      </trkpt>
      <trkpt lat="43.97582" lon="5.11063">
        <ele>291.9</ele>
        <time>2015-11-23T08:44:55Z</time>
      </trkpt>
      <trkpt lat="43.97572" lon="5.11075">
        <ele>292.86</ele>
        <time>2015-11-23T08:45:08Z</time>
      </trkpt>
      <trkpt lat="43.97565" lon="5.11082">
        <ele>294.78</ele>
        <time>2015-11-23T08:45:21Z</time>
      </trkpt>
      <trkpt lat="43.97556" lon="5.11092">
        <ele>296.7</ele>
        <time>2015-11-23T08:45:34Z</time>
      </trkpt>
      <trkpt lat="43.97549" lon="5.11101">
        <ele>298.15</ele>
        <time>2015-11-23T08:45:47Z</time>
      </trkpt>
      <trkpt lat="43.97548" lon="5.111">
        <ele>297.67</ele>
        <time>2015-11-23T08:46:09Z</time>
      </trkpt>
      <trkpt lat="43.97542" lon="5.11104">
        <ele>297.67</ele>
        <time>2015-11-23T08:46:26Z</time>
      </trkpt>
      <trkpt lat="43.97534" lon="5.11108">
        <ele>298.63</ele>
        <time>2015-11-23T08:46:39Z</time>
      </trkpt>
      <trkpt lat="43.97524" lon="5.11114">
        <ele>300.07</ele>
        <time>2015-11-23T08:46:52Z</time>
      </trkpt>
      <trkpt lat="43.97515" lon="5.1112">
        <ele>301.51</ele>
        <time>2015-11-23T08:47:05Z</time>
      </trkpt>
      <trkpt lat="43.97513" lon="5.11126">
        <ele>301.99</ele>
        <time>2015-11-23T08:47:17Z</time>
      </trkpt>
      <trkpt lat="43.97504" lon="5.11132">
        <ele>303.91</ele>
        <time>2015-11-23T08:47:30Z</time>
      </trkpt>
      <trkpt lat="43.97499" lon="5.11142">
        <ele>305.84</ele>
        <time>2015-11-23T08:47:45Z</time>
      </trkpt>
      <trkpt lat="43.97492" lon="5.11157">
        <ele>307.28</ele>
        <time>2015-11-23T08:48:02Z</time>
      </trkpt>
      <trkpt lat="43.97483" lon="5.11167">
        <ele>308.72</ele>
        <time>2015-11-23T08:48:17Z</time>
      </trkpt>
      <trkpt lat="43.97476" lon="5.11177">
        <ele>309.68</ele>
        <time>2015-11-23T08:48:30Z</time>
      </trkpt>
      <trkpt lat="43.9747" lon="5.11183">
        <ele>310.64</ele>
        <time>2015-11-23T08:48:41Z</time>
      </trkpt>
      <trkpt lat="43.9746" lon="5.1119">
        <ele>312.09</ele>
        <time>2015-11-23T08:48:58Z</time>
      </trkpt>
      <trkpt lat="43.97446" lon="5.112">
        <ele>313.53</ele>
        <time>2015-11-23T08:49:13Z</time>
      </trkpt>
      <trkpt lat="43.97437" lon="5.11205">
        <ele>314.49</ele>
        <time>2015-11-23T08:49:28Z</time>
      </trkpt>
      <trkpt lat="43.97433" lon="5.11208">
        <ele>314.49</ele>
        <time>2015-11-23T08:49:53Z</time>
      </trkpt>
      <trkpt lat="43.97433" lon="5.11209">
        <ele>314.49</ele>
        <time>2015-11-23T08:50:16Z</time>
      </trkpt>
      <trkpt lat="43.97424" lon="5.11214">
        <ele>315.45</ele>
        <time>2015-11-23T08:50:32Z</time>
      </trkpt>
      <trkpt lat="43.97407" lon="5.11221">
        <ele>317.37</ele>
        <time>2015-11-23T08:50:51Z</time>
      </trkpt>
      <trkpt lat="43.97388" lon="5.11224">
        <ele>318.33</ele>
        <time>2015-11-23T08:51:13Z</time>
      </trkpt>
      <trkpt lat="43.97378" lon="5.11224">
        <ele>319.78</ele>
        <time>2015-11-23T08:51:27Z</time>
      </trkpt>
      <trkpt lat="43.97366" lon="5.11225">
        <ele>321.22</ele>
        <time>2015-11-23T08:51:46Z</time>
      </trkpt>
      <trkpt lat="43.97348" lon="5.11231">
        <ele>322.66</ele>
        <time>2015-11-23T08:52:05Z</time>
      </trkpt>
      <trkpt lat="43.97335" lon="5.11239">
        <ele>324.1</ele>
        <time>2015-11-23T08:52:21Z</time>
      </trkpt>
      <trkpt lat="43.97321" lon="5.11241">
        <ele>326.02</ele>
        <time>2015-11-23T08:52:37Z</time>
      </trkpt>
      <trkpt lat="43.97308" lon="5.1124">
        <ele>328.91</ele>
        <time>2015-11-23T08:52:59Z</time>
      </trkpt>
      <trkpt lat="43.97309" lon="5.11239">
        <ele>328.43</ele>
        <time>2015-11-23T08:53:17Z</time>
      </trkpt>
      <trkpt lat="43.97303" lon="5.1124">
        <ele>328.91</ele>
        <time>2015-11-23T08:53:34Z</time>
      </trkpt>
      <trkpt lat="43.97293" lon="5.11238">
        <ele>330.83</ele>
        <time>2015-11-23T08:53:47Z</time>
      </trkpt>
      <trkpt lat="43.97285" lon="5.11235">
        <ele>332.75</ele>
        <time>2015-11-23T08:54:03Z</time>
      </trkpt>
      <trkpt lat="43.97277" lon="5.1123">
        <ele>335.16</ele>
        <time>2015-11-23T08:54:19Z</time>
      </trkpt>
      <trkpt lat="43.97265" lon="5.11223">
        <ele>337.56</ele>
        <time>2015-11-23T08:54:36Z</time>
      </trkpt>
      <trkpt lat="43.97256" lon="5.11222">
        <ele>339</ele>
        <time>2015-11-23T08:54:50Z</time>
      </trkpt>
      <trkpt lat="43.97242" lon="5.11216">
        <ele>340.92</ele>
        <time>2015-11-23T08:55:07Z</time>
      </trkpt>
      <trkpt lat="43.9723" lon="5.11211">
        <ele>342.37</ele>
        <time>2015-11-23T08:55:22Z</time>
      </trkpt>
      <trkpt lat="43.9722" lon="5.11208">
        <ele>344.29</ele>
        <time>2015-11-23T08:55:37Z</time>
      </trkpt>
      <trkpt lat="43.97211" lon="5.11206">
        <ele>346.69</ele>
        <time>2015-11-23T08:55:54Z</time>
      </trkpt>
      <trkpt lat="43.972" lon="5.11199">
        <ele>348.62</ele>
        <time>2015-11-23T08:56:11Z</time>
      </trkpt>
      <trkpt lat="43.97191" lon="5.11192">
        <ele>351.5</ele>
        <time>2015-11-23T08:56:26Z</time>
      </trkpt>
      <trkpt lat="43.97182" lon="5.11186">
        <ele>353.42</ele>
        <time>2015-11-23T08:56:40Z</time>
      </trkpt>
      <trkpt lat="43.9718" lon="5.11183">
        <ele>353.42</ele>
        <time>2015-11-23T08:56:59Z</time>
      </trkpt>
      <trkpt lat="43.97177" lon="5.1118">
        <ele>352.94</ele>
        <time>2015-11-23T08:57:23Z</time>
      </trkpt>
      <trkpt lat="43.97176" lon="5.11178">
        <ele>352.94</ele>
        <time>2015-11-23T08:57:39Z</time>
      </trkpt>
      <trkpt lat="43.97177" lon="5.11176">
        <ele>352.94</ele>
        <time>2015-11-23T08:57:54Z</time>
      </trkpt>
      <trkpt lat="43.97175" lon="5.11177">
        <ele>353.42</ele>
        <time>2015-11-23T08:58:09Z</time>
      </trkpt>
      <trkpt lat="43.97175" lon="5.11176">
        <ele>353.42</ele>
        <time>2015-11-23T08:58:34Z</time>
      </trkpt>
      <trkpt lat="43.97176" lon="5.1118">
        <ele>353.42</ele>
        <time>2015-11-23T08:58:53Z</time>
      </trkpt>
      <trkpt lat="43.97178" lon="5.11183">
        <ele>353.42</ele>
        <time>2015-11-23T08:59:13Z</time>
      </trkpt>
      <trkpt lat="43.97177" lon="5.11181">
        <ele>353.42</ele>
        <time>2015-11-23T08:59:32Z</time>
      </trkpt>
      <trkpt lat="43.97174" lon="5.11176">
        <ele>354.86</ele>
        <time>2015-11-23T08:59:45Z</time>
      </trkpt>
      <trkpt lat="43.97165" lon="5.11173">
        <ele>357.27</ele>
        <time>2015-11-23T09:00:03Z</time>
      </trkpt>
      <trkpt lat="43.9716" lon="5.11171">
        <ele>357.75</ele>
        <time>2015-11-23T09:00:15Z</time>
      </trkpt>
      <trkpt lat="43.97152" lon="5.11171">
        <ele>359.19</ele>
        <time>2015-11-23T09:00:31Z</time>
      </trkpt>
      <trkpt lat="43.97141" lon="5.11163">
        <ele>360.63</ele>
        <time>2015-11-23T09:00:51Z</time>
      </trkpt>
      <trkpt lat="43.97135" lon="5.11154">
        <ele>361.59</ele>
        <time>2015-11-23T09:01:07Z</time>
      </trkpt>
      <trkpt lat="43.97128" lon="5.11144">
        <ele>362.55</ele>
        <time>2015-11-23T09:01:21Z</time>
      </trkpt>
      <trkpt lat="43.97123" lon="5.11133">
        <ele>364</ele>
        <time>2015-11-23T09:01:38Z</time>
      </trkpt>
      <trkpt lat="43.97119" lon="5.11116">
        <ele>365.44</ele>
        <time>2015-11-23T09:01:58Z</time>
      </trkpt>
      <trkpt lat="43.97109" lon="5.11112">
        <ele>365.44</ele>
        <time>2015-11-23T09:02:15Z</time>
      </trkpt>
      <trkpt lat="43.97094" lon="5.11105">
        <ele>366.88</ele>
        <time>2015-11-23T09:02:35Z</time>
      </trkpt>
      <trkpt lat="43.97082" lon="5.11099">
        <ele>367.36</ele>
        <time>2015-11-23T09:02:50Z</time>
      </trkpt>
      <trkpt lat="43.97069" lon="5.11089">
        <ele>368.8</ele>
        <time>2015-11-23T09:03:09Z</time>
      </trkpt>
      <trkpt lat="43.97054" lon="5.11073">
        <ele>368.8</ele>
        <time>2015-11-23T09:03:24Z</time>
      </trkpt>
      <trkpt lat="43.97051" lon="5.11071">
        <ele>368.8</ele>
        <time>2015-11-23T09:03:46Z</time>
      </trkpt>
      <trkpt lat="43.97044" lon="5.11068">
        <ele>369.28</ele>
        <time>2015-11-23T09:04:01Z</time>
      </trkpt>
      <trkpt lat="43.97028" lon="5.11064">
        <ele>369.76</ele>
        <time>2015-11-23T09:04:18Z</time>
      </trkpt>
      <trkpt lat="43.97022" lon="5.11063">
        <ele>369.76</ele>
        <time>2015-11-23T09:04:32Z</time>
      </trkpt>
      <trkpt lat="43.97012" lon="5.1106">
        <ele>370.24</ele>
        <time>2015-11-23T09:04:46Z</time>
      </trkpt>
      <trkpt lat="43.97004" lon="5.11061">
        <ele>371.21</ele>
        <time>2015-11-23T09:05:05Z</time>
      </trkpt>
      <trkpt lat="43.96991" lon="5.11053">
        <ele>371.21</ele>
        <time>2015-11-23T09:05:19Z</time>
      </trkpt>
      <trkpt lat="43.96976" lon="5.11049">
        <ele>372.17</ele>
        <time>2015-11-23T09:05:39Z</time>
      </trkpt>
      <trkpt lat="43.96965" lon="5.11045">
        <ele>372.65</ele>
        <time>2015-11-23T09:05:56Z</time>
      </trkpt>
      <trkpt lat="43.96956" lon="5.11046">
        <ele>373.61</ele>
        <time>2015-11-23T09:06:11Z</time>
      </trkpt>
      <trkpt lat="43.96947" lon="5.11046">
        <ele>374.09</ele>
        <time>2015-11-23T09:06:28Z</time>
      </trkpt>
      <trkpt lat="43.96929" lon="5.11043">
        <ele>374.57</ele>
        <time>2015-11-23T09:06:47Z</time>
      </trkpt>
      <trkpt lat="43.96919" lon="5.11039">
        <ele>375.05</ele>
        <time>2015-11-23T09:07:04Z</time>
      </trkpt>
      <trkpt lat="43.9691" lon="5.11032">
        <ele>375.53</ele>
        <time>2015-11-23T09:07:17Z</time>
      </trkpt>
      <trkpt lat="43.96904" lon="5.11028">
        <ele>376.01</ele>
        <time>2015-11-23T09:07:29Z</time>
      </trkpt>
      <trkpt lat="43.96893" lon="5.11015">
        <ele>375.53</ele>
        <time>2015-11-23T09:07:44Z</time>
      </trkpt>
      <trkpt lat="43.96882" lon="5.11002">
        <ele>375.05</ele>
        <time>2015-11-23T09:08:02Z</time>
      </trkpt>
      <trkpt lat="43.96886" lon="5.10992">
        <ele>375.05</ele>
        <time>2015-11-23T09:08:16Z</time>
      </trkpt>
      <trkpt lat="43.96896" lon="5.10979">
        <ele>374.09</ele>
        <time>2015-11-23T09:08:31Z</time>
      </trkpt>
      <trkpt lat="43.96907" lon="5.10969">
        <ele>373.13</ele>
        <time>2015-11-23T09:08:46Z</time>
      </trkpt>
      <trkpt lat="43.96916" lon="5.10953">
        <ele>372.17</ele>
        <time>2015-11-23T09:09:03Z</time>
      </trkpt>
      <trkpt lat="43.96923" lon="5.10938">
        <ele>371.69</ele>
        <time>2015-11-23T09:09:20Z</time>
      </trkpt>
      <trkpt lat="43.96929" lon="5.10925">
        <ele>370.73</ele>
        <time>2015-11-23T09:09:33Z</time>
      </trkpt>
      <trkpt lat="43.96934" lon="5.10915">
        <ele>369.76</ele>
        <time>2015-11-23T09:09:49Z</time>
      </trkpt>
      <trkpt lat="43.9694" lon="5.10904">
        <ele>368.8</ele>
        <time>2015-11-23T09:10:04Z</time>
      </trkpt>
      <trkpt lat="43.96948" lon="5.10893">
        <ele>368.32</ele>
        <time>2015-11-23T09:10:16Z</time>
      </trkpt>
      <trkpt lat="43.96958" lon="5.10881">
        <ele>367.36</ele>
        <time>2015-11-23T09:10:29Z</time>
      </trkpt>
      <trkpt lat="43.96965" lon="5.10871">
        <ele>366.88</ele>
        <time>2015-11-23T09:10:42Z</time>
      </trkpt>
      <trkpt lat="43.96974" lon="5.1086">
        <ele>365.44</ele>
        <time>2015-11-23T09:10:58Z</time>
      </trkpt>
      <trkpt lat="43.96982" lon="5.10851">
        <ele>364.48</ele>
        <time>2015-11-23T09:11:13Z</time>
      </trkpt>
      <trkpt lat="43.96992" lon="5.10843">
        <ele>364</ele>
        <time>2015-11-23T09:11:27Z</time>
      </trkpt>
      <trkpt lat="43.96998" lon="5.10852">
        <ele>364</ele>
        <time>2015-11-23T09:11:41Z</time>
      </trkpt>
      <trkpt lat="43.97006" lon="5.10864">
        <ele>363.52</ele>
        <time>2015-11-23T09:11:54Z</time>
      </trkpt>
      <trkpt lat="43.97012" lon="5.10878">
        <ele>363.52</ele>
        <time>2015-11-23T09:12:11Z</time>
      </trkpt>
      <trkpt lat="43.9702" lon="5.10895">
        <ele>363.04</ele>
        <time>2015-11-23T09:12:25Z</time>
      </trkpt>
      <trkpt lat="43.97028" lon="5.10902">
        <ele>363.04</ele>
        <time>2015-11-23T09:12:38Z</time>
      </trkpt>
      <trkpt lat="43.97032" lon="5.10912">
        <ele>363.04</ele>
        <time>2015-11-23T09:12:52Z</time>
      </trkpt>
      <trkpt lat="43.97035" lon="5.10919">
        <ele>363.04</ele>
        <time>2015-11-23T09:13:04Z</time>
      </trkpt>
      <trkpt lat="43.97041" lon="5.10933">
        <ele>363.04</ele>
        <time>2015-11-23T09:13:21Z</time>
      </trkpt>
      <trkpt lat="43.97042" lon="5.10937">
        <ele>363.04</ele>
        <time>2015-11-23T09:13:40Z</time>
      </trkpt>
      <trkpt lat="43.97044" lon="5.10937">
        <ele>363.04</ele>
        <time>2015-11-23T09:14:07Z</time>
      </trkpt>
      <trkpt lat="43.97043" lon="5.10936">
        <ele>363.04</ele>
        <time>2015-11-23T09:14:32Z</time>
      </trkpt>
      <trkpt lat="43.97043" lon="5.10934">
        <ele>363.52</ele>
        <time>2015-11-23T09:14:57Z</time>
      </trkpt>
      <trkpt lat="43.97044" lon="5.10933">
        <ele>363.04</ele>
        <time>2015-11-23T09:15:20Z</time>
      </trkpt>
      <trkpt lat="43.97046" lon="5.10936">
        <ele>363.52</ele>
        <time>2015-11-23T09:15:39Z</time>
      </trkpt>
      <trkpt lat="43.97043" lon="5.10936">
        <ele>363.52</ele>
        <time>2015-11-23T09:15:59Z</time>
      </trkpt>
      <trkpt lat="43.97045" lon="5.10933">
        <ele>363.04</ele>
        <time>2015-11-23T09:16:15Z</time>
      </trkpt>
      <trkpt lat="43.97048" lon="5.10932">
        <ele>363.52</ele>
        <time>2015-11-23T09:16:32Z</time>
      </trkpt>
      <trkpt lat="43.97048" lon="5.10928">
        <ele>363.52</ele>
        <time>2015-11-23T09:16:48Z</time>
      </trkpt>
      <trkpt lat="43.97048" lon="5.10926">
        <ele>363.04</ele>
        <time>2015-11-23T09:17:03Z</time>
      </trkpt>
      <trkpt lat="43.97047" lon="5.10925">
        <ele>363.52</ele>
        <time>2015-11-23T09:17:15Z</time>
      </trkpt>
      <trkpt lat="43.97047" lon="5.10928">
        <ele>363.52</ele>
        <time>2015-11-23T09:17:31Z</time>
      </trkpt>
      <trkpt lat="43.97043" lon="5.10934">
        <ele>363.52</ele>
        <time>2015-11-23T09:17:43Z</time>
      </trkpt>
      <trkpt lat="43.97043" lon="5.10933">
        <ele>363.52</ele>
        <time>2015-11-23T09:18:04Z</time>
      </trkpt>
      <trkpt lat="43.97038" lon="5.10923">
        <ele>363.52</ele>
        <time>2015-11-23T09:18:18Z</time>
      </trkpt>
      <trkpt lat="43.97034" lon="5.10911">
        <ele>363.52</ele>
        <time>2015-11-23T09:18:31Z</time>
      </trkpt>
      <trkpt lat="43.97038" lon="5.10901">
        <ele>363.52</ele>
        <time>2015-11-23T09:18:44Z</time>
      </trkpt>
      <trkpt lat="43.97038" lon="5.10901">
        <ele>363.52</ele>
        <time>2015-11-23T09:18:57Z</time>
      </trkpt>
      <trkpt lat="43.97038" lon="5.109">
        <ele>363.52</ele>
        <time>2015-11-23T09:19:16Z</time>
      </trkpt>
      <trkpt lat="43.97038" lon="5.10899">
        <ele>363.52</ele>
        <time>2015-11-23T09:19:34Z</time>
      </trkpt>
      <trkpt lat="43.97037" lon="5.10901">
        <ele>363.52</ele>
        <time>2015-11-23T09:19:51Z</time>
      </trkpt>
      <trkpt lat="43.97037" lon="5.10902">
        <ele>363.52</ele>
        <time>2015-11-23T09:20:08Z</time>
      </trkpt>
      <trkpt lat="43.97036" lon="5.109">
        <ele>363.52</ele>
        <time>2015-11-23T09:20:24Z</time>
      </trkpt>
      <trkpt lat="43.97037" lon="5.10901">
        <ele>363.52</ele>
        <time>2015-11-23T09:20:45Z</time>
      </trkpt>
      <trkpt lat="43.97036" lon="5.10902">
        <ele>363.52</ele>
        <time>2015-11-23T09:21:09Z</time>
      </trkpt>
      <trkpt lat="43.97038" lon="5.10902">
        <ele>364.48</ele>
        <time>2015-11-23T09:21:33Z</time>
      </trkpt>
      <trkpt lat="43.97035" lon="5.10902">
        <ele>363.52</ele>
        <time>2015-11-23T09:21:48Z</time>
      </trkpt>
      <trkpt lat="43.97035" lon="5.10902">
        <ele>363.52</ele>
        <time>2015-11-23T09:22:08Z</time>
      </trkpt>
      <trkpt lat="43.97036" lon="5.10899">
        <ele>363.52</ele>
        <time>2015-11-23T09:22:31Z</time>
      </trkpt>
      <trkpt lat="43.97036" lon="5.10902">
        <ele>363.52</ele>
        <time>2015-11-23T09:22:51Z</time>
      </trkpt>
      <trkpt lat="43.97036" lon="5.10901">
        <ele>364</ele>
        <time>2015-11-23T09:23:13Z</time>
      </trkpt>
      <trkpt lat="43.97037" lon="5.10899">
        <ele>363.52</ele>
        <time>2015-11-23T09:23:28Z</time>
      </trkpt>
      <trkpt lat="43.97036" lon="5.10899">
        <ele>364</ele>
        <time>2015-11-23T09:23:52Z</time>
      </trkpt>
      <trkpt lat="43.97036" lon="5.10897">
        <ele>363.52</ele>
        <time>2015-11-23T09:24:16Z</time>
      </trkpt>
      <trkpt lat="43.97036" lon="5.109">
        <ele>364</ele>
        <time>2015-11-23T09:24:37Z</time>
      </trkpt>
      <trkpt lat="43.97036" lon="5.10899">
        <ele>364</ele>
        <time>2015-11-23T09:24:56Z</time>
      </trkpt>
      <trkpt lat="43.97036" lon="5.10898">
        <ele>364</ele>
        <time>2015-11-23T09:25:17Z</time>
      </trkpt>
      <trkpt lat="43.97037" lon="5.10897">
        <ele>364</ele>
        <time>2015-11-23T09:25:42Z</time>
      </trkpt>
      <trkpt lat="43.97036" lon="5.10898">
        <ele>364</ele>
        <time>2015-11-23T09:25:55Z</time>
      </trkpt>
      <trkpt lat="43.97037" lon="5.10901">
        <ele>364</ele>
        <time>2015-11-23T09:26:17Z</time>
      </trkpt>
      <trkpt lat="43.97037" lon="5.10903">
        <ele>364.48</ele>
        <time>2015-11-23T09:26:45Z</time>
      </trkpt>
      <trkpt lat="43.97037" lon="5.10906">
        <ele>364.48</ele>
        <time>2015-11-23T09:27:19Z</time>
      </trkpt>
      <trkpt lat="43.97038" lon="5.10904">
        <ele>364.48</ele>
        <time>2015-11-23T09:27:41Z</time>
      </trkpt>
      <trkpt lat="43.97037" lon="5.10902">
        <ele>364.48</ele>
        <time>2015-11-23T09:28:04Z</time>
      </trkpt>
      <trkpt lat="43.97034" lon="5.10901">
        <ele>364.48</ele>
        <time>2015-11-23T09:28:18Z</time>
      </trkpt>
      <trkpt lat="43.97035" lon="5.10902">
        <ele>364.96</ele>
        <time>2015-11-23T09:28:32Z</time>
      </trkpt>
      <trkpt lat="43.97036" lon="5.10901">
        <ele>364.96</ele>
        <time>2015-11-23T09:29:00Z</time>
      </trkpt>
      <trkpt lat="43.97036" lon="5.109">
        <ele>364.96</ele>
        <time>2015-11-23T09:29:21Z</time>
      </trkpt>
      <trkpt lat="43.97036" lon="5.109">
        <ele>364.96</ele>
        <time>2015-11-23T09:29:37Z</time>
      </trkpt>
      <trkpt lat="43.97036" lon="5.10899">
        <ele>364.96</ele>
        <time>2015-11-23T09:29:58Z</time>
      </trkpt>
      <trkpt lat="43.97037" lon="5.10899">
        <ele>364.96</ele>
        <time>2015-11-23T09:30:13Z</time>
      </trkpt>
      <trkpt lat="43.97036" lon="5.10902">
        <ele>364.96</ele>
        <time>2015-11-23T09:30:30Z</time>
      </trkpt>
      <trkpt lat="43.97036" lon="5.10903">
        <ele>365.44</ele>
        <time>2015-11-23T09:30:40Z</time>
      </trkpt>
      <trkpt lat="43.97036" lon="5.10902">
        <ele>365.44</ele>
        <time>2015-11-23T09:30:58Z</time>
      </trkpt>
      <trkpt lat="43.97036" lon="5.10901">
        <ele>364.96</ele>
        <time>2015-11-23T09:31:14Z</time>
      </trkpt>
      <trkpt lat="43.97037" lon="5.10901">
        <ele>365.44</ele>
        <time>2015-11-23T09:31:28Z</time>
      </trkpt>
      <trkpt lat="43.97036" lon="5.10903">
        <ele>365.44</ele>
        <time>2015-11-23T09:31:49Z</time>
      </trkpt>
      <trkpt lat="43.97035" lon="5.10904">
        <ele>365.44</ele>
        <time>2015-11-23T09:32:10Z</time>
      </trkpt>
      <trkpt lat="43.9703" lon="5.10902">
        <ele>365.92</ele>
        <time>2015-11-23T09:32:23Z</time>
      </trkpt>
      <trkpt lat="43.97023" lon="5.10894">
        <ele>365.92</ele>
        <time>2015-11-23T09:32:38Z</time>
      </trkpt>
      <trkpt lat="43.97021" lon="5.1089">
        <ele>366.4</ele>
        <time>2015-11-23T09:32:43Z</time>
      </trkpt>
      <trkpt lat="43.97013" lon="5.10876">
        <ele>366.4</ele>
        <time>2015-11-23T09:32:57Z</time>
      </trkpt>
      <trkpt lat="43.97006" lon="5.1086">
        <ele>366.4</ele>
        <time>2015-11-23T09:33:14Z</time>
      </trkpt>
      <trkpt lat="43.96998" lon="5.10844">
        <ele>366.4</ele>
        <time>2015-11-23T09:33:29Z</time>
      </trkpt>
      <trkpt lat="43.97005" lon="5.1083">
        <ele>365.92</ele>
        <time>2015-11-23T09:33:44Z</time>
      </trkpt>
      <trkpt lat="43.97012" lon="5.10821">
        <ele>364.96</ele>
        <time>2015-11-23T09:33:57Z</time>
      </trkpt>
      <trkpt lat="43.97022" lon="5.10807">
        <ele>364</ele>
        <time>2015-11-23T09:34:15Z</time>
      </trkpt>
      <trkpt lat="43.97031" lon="5.10799">
        <ele>363.52</ele>
        <time>2015-11-23T09:34:28Z</time>
      </trkpt>
      <trkpt lat="43.97038" lon="5.10787">
        <ele>362.55</ele>
        <time>2015-11-23T09:34:42Z</time>
      </trkpt>
      <trkpt lat="43.97043" lon="5.10775">
        <ele>361.59</ele>
        <time>2015-11-23T09:34:55Z</time>
      </trkpt>
      <trkpt lat="43.97052" lon="5.10763">
        <ele>360.15</ele>
        <time>2015-11-23T09:35:11Z</time>
      </trkpt>
      <trkpt lat="43.97049" lon="5.10756">
        <ele>360.15</ele>
        <time>2015-11-23T09:35:23Z</time>
      </trkpt>
      <trkpt lat="43.97041" lon="5.10739">
        <ele>360.63</ele>
        <time>2015-11-23T09:35:38Z</time>
      </trkpt>
      <trkpt lat="43.97033" lon="5.10727">
        <ele>361.11</ele>
        <time>2015-11-23T09:35:53Z</time>
      </trkpt>
      <trkpt lat="43.97025" lon="5.10715">
        <ele>361.59</ele>
        <time>2015-11-23T09:36:06Z</time>
      </trkpt>
      <trkpt lat="43.97017" lon="5.10706">
        <ele>362.07</ele>
        <time>2015-11-23T09:36:20Z</time>
      </trkpt>
      <trkpt lat="43.97015" lon="5.10702">
        <ele>361.59</ele>
        <time>2015-11-23T09:36:23Z</time>
      </trkpt>
      <trkpt lat="43.97016" lon="5.10682">
        <ele>361.59</ele>
        <time>2015-11-23T09:36:39Z</time>
      </trkpt>
      <trkpt lat="43.97009" lon="5.10666">
        <ele>362.07</ele>
        <time>2015-11-23T09:36:54Z</time>
      </trkpt>
      <trkpt lat="43.97001" lon="5.10664">
        <ele>362.07</ele>
        <time>2015-11-23T09:37:09Z</time>
      </trkpt>
      <trkpt lat="43.96995" lon="5.10657">
        <ele>362.07</ele>
        <time>2015-11-23T09:37:19Z</time>
      </trkpt>
      <trkpt lat="43.96988" lon="5.10656">
        <ele>362.07</ele>
        <time>2015-11-23T09:37:30Z</time>
      </trkpt>
      <trkpt lat="43.96975" lon="5.10649">
        <ele>362.55</ele>
        <time>2015-11-23T09:37:44Z</time>
      </trkpt>
      <trkpt lat="43.96969" lon="5.10648">
        <ele>362.55</ele>
        <time>2015-11-23T09:37:51Z</time>
      </trkpt>
      <trkpt lat="43.96953" lon="5.10644">
        <ele>362.55</ele>
        <time>2015-11-23T09:38:06Z</time>
      </trkpt>
      <trkpt lat="43.96938" lon="5.10645">
        <ele>363.52</ele>
        <time>2015-11-23T09:38:22Z</time>
      </trkpt>
      <trkpt lat="43.96927" lon="5.10644">
        <ele>363.52</ele>
        <time>2015-11-23T09:38:37Z</time>
      </trkpt>
      <trkpt lat="43.96914" lon="5.10632">
        <ele>364</ele>
        <time>2015-11-23T09:38:51Z</time>
      </trkpt>
      <trkpt lat="43.969" lon="5.10618">
        <ele>364</ele>
        <time>2015-11-23T09:39:08Z</time>
      </trkpt>
      <trkpt lat="43.96895" lon="5.10611">
        <ele>364</ele>
        <time>2015-11-23T09:39:23Z</time>
      </trkpt>
      <trkpt lat="43.96887" lon="5.10602">
        <ele>364.48</ele>
        <time>2015-11-23T09:39:34Z</time>
      </trkpt>
      <trkpt lat="43.96873" lon="5.10587">
        <ele>364.48</ele>
        <time>2015-11-23T09:39:51Z</time>
      </trkpt>
      <trkpt lat="43.96862" lon="5.10578">
        <ele>364</ele>
        <time>2015-11-23T09:40:03Z</time>
      </trkpt>
      <trkpt lat="43.9686" lon="5.10576">
        <ele>364</ele>
        <time>2015-11-23T09:40:06Z</time>
      </trkpt>
      <trkpt lat="43.96851" lon="5.10569">
        <ele>364</ele>
        <time>2015-11-23T09:40:20Z</time>
      </trkpt>
      <trkpt lat="43.96841" lon="5.10568">
        <ele>363.52</ele>
        <time>2015-11-23T09:40:34Z</time>
      </trkpt>
      <trkpt lat="43.96835" lon="5.10566">
        <ele>364.48</ele>
        <time>2015-11-23T09:40:38Z</time>
      </trkpt>
      <trkpt lat="43.96822" lon="5.10568">
        <ele>364.96</ele>
        <time>2015-11-23T09:40:53Z</time>
      </trkpt>
      <trkpt lat="43.96823" lon="5.10577">
        <ele>364.96</ele>
        <time>2015-11-23T09:41:08Z</time>
      </trkpt>
      <trkpt lat="43.96824" lon="5.10588">
        <ele>364.96</ele>
        <time>2015-11-23T09:41:17Z</time>
      </trkpt>
      <trkpt lat="43.96826" lon="5.1061">
        <ele>365.44</ele>
        <time>2015-11-23T09:41:32Z</time>
      </trkpt>
      <trkpt lat="43.96825" lon="5.10622">
        <ele>366.4</ele>
        <time>2015-11-23T09:41:44Z</time>
      </trkpt>
      <trkpt lat="43.9682" lon="5.10644">
        <ele>366.88</ele>
        <time>2015-11-23T09:42:00Z</time>
      </trkpt>
      <trkpt lat="43.96811" lon="5.10659">
        <ele>367.36</ele>
        <time>2015-11-23T09:42:15Z</time>
      </trkpt>
      <trkpt lat="43.96806" lon="5.10671">
        <ele>368.32</ele>
        <time>2015-11-23T09:42:26Z</time>
      </trkpt>
      <trkpt lat="43.96805" lon="5.10673">
        <ele>368.32</ele>
        <time>2015-11-23T09:42:28Z</time>
      </trkpt>
      <trkpt lat="43.96793" lon="5.10691">
        <ele>368.8</ele>
        <time>2015-11-23T09:42:45Z</time>
      </trkpt>
      <trkpt lat="43.96782" lon="5.10706">
        <ele>369.28</ele>
        <time>2015-11-23T09:43:02Z</time>
      </trkpt>
      <trkpt lat="43.96774" lon="5.10715">
        <ele>368.8</ele>
        <time>2015-11-23T09:43:14Z</time>
      </trkpt>
      <trkpt lat="43.96767" lon="5.1073">
        <ele>368.8</ele>
        <time>2015-11-23T09:43:26Z</time>
      </trkpt>
      <trkpt lat="43.96759" lon="5.10751">
        <ele>368.8</ele>
        <time>2015-11-23T09:43:42Z</time>
      </trkpt>
      <trkpt lat="43.96751" lon="5.1077">
        <ele>368.8</ele>
        <time>2015-11-23T09:44:00Z</time>
      </trkpt>
      <trkpt lat="43.96747" lon="5.10783">
        <ele>368.8</ele>
        <time>2015-11-23T09:44:14Z</time>
      </trkpt>
      <trkpt lat="43.96742" lon="5.10803">
        <ele>367.84</ele>
        <time>2015-11-23T09:44:31Z</time>
      </trkpt>
      <trkpt lat="43.96737" lon="5.10823">
        <ele>368.32</ele>
        <time>2015-11-23T09:44:46Z</time>
      </trkpt>
      <trkpt lat="43.96731" lon="5.10836">
        <ele>368.32</ele>
        <time>2015-11-23T09:45:00Z</time>
      </trkpt>
      <trkpt lat="43.96729" lon="5.1084">
        <ele>368.32</ele>
        <time>2015-11-23T09:45:05Z</time>
      </trkpt>
      <trkpt lat="43.96722" lon="5.10849">
        <ele>368.8</ele>
        <time>2015-11-23T09:45:16Z</time>
      </trkpt>
      <trkpt lat="43.96713" lon="5.10862">
        <ele>368.8</ele>
        <time>2015-11-23T09:45:31Z</time>
      </trkpt>
      <trkpt lat="43.96703" lon="5.10874">
        <ele>369.28</ele>
        <time>2015-11-23T09:45:46Z</time>
      </trkpt>
      <trkpt lat="43.9669" lon="5.10886">
        <ele>369.28</ele>
        <time>2015-11-23T09:46:02Z</time>
      </trkpt>
      <trkpt lat="43.96681" lon="5.10899">
        <ele>370.24</ele>
        <time>2015-11-23T09:46:17Z</time>
      </trkpt>
      <trkpt lat="43.96674" lon="5.10899">
        <ele>370.24</ele>
        <time>2015-11-23T09:46:34Z</time>
      </trkpt>
      <trkpt lat="43.96672" lon="5.10895">
        <ele>369.76</ele>
        <time>2015-11-23T09:46:37Z</time>
      </trkpt>
      <trkpt lat="43.96669" lon="5.10883">
        <ele>369.28</ele>
        <time>2015-11-23T09:46:47Z</time>
      </trkpt>
      <trkpt lat="43.96667" lon="5.10868">
        <ele>368.8</ele>
        <time>2015-11-23T09:46:59Z</time>
      </trkpt>
      <trkpt lat="43.96665" lon="5.10852">
        <ele>367.84</ele>
        <time>2015-11-23T09:47:12Z</time>
      </trkpt>
      <trkpt lat="43.96665" lon="5.10831">
        <ele>366.4</ele>
        <time>2015-11-23T09:47:27Z</time>
      </trkpt>
      <trkpt lat="43.96665" lon="5.10815">
        <ele>364.96</ele>
        <time>2015-11-23T09:47:42Z</time>
      </trkpt>
      <trkpt lat="43.96667" lon="5.10798">
        <ele>364</ele>
        <time>2015-11-23T09:47:55Z</time>
      </trkpt>
      <trkpt lat="43.96664" lon="5.10782">
        <ele>362.55</ele>
        <time>2015-11-23T09:48:12Z</time>
      </trkpt>
      <trkpt lat="43.96665" lon="5.10762">
        <ele>361.11</ele>
        <time>2015-11-23T09:48:29Z</time>
      </trkpt>
      <trkpt lat="43.96668" lon="5.10744">
        <ele>360.15</ele>
        <time>2015-11-23T09:48:42Z</time>
      </trkpt>
      <trkpt lat="43.96677" lon="5.10723">
        <ele>360.63</ele>
        <time>2015-11-23T09:48:59Z</time>
      </trkpt>
      <trkpt lat="43.96682" lon="5.10711">
        <ele>360.63</ele>
        <time>2015-11-23T09:49:11Z</time>
      </trkpt>
      <trkpt lat="43.9669" lon="5.10696">
        <ele>360.63</ele>
        <time>2015-11-23T09:49:24Z</time>
      </trkpt>
      <trkpt lat="43.96699" lon="5.1068">
        <ele>360.63</ele>
        <time>2015-11-23T09:49:39Z</time>
      </trkpt>
      <trkpt lat="43.96703" lon="5.10662">
        <ele>361.11</ele>
        <time>2015-11-23T09:49:55Z</time>
      </trkpt>
      <trkpt lat="43.96701" lon="5.10659">
        <ele>360.63</ele>
        <time>2015-11-23T09:49:57Z</time>
      </trkpt>
      <trkpt lat="43.96699" lon="5.10653">
        <ele>360.15</ele>
        <time>2015-11-23T09:50:02Z</time>
      </trkpt>
      <trkpt lat="43.96698" lon="5.10649">
        <ele>360.15</ele>
        <time>2015-11-23T09:50:05Z</time>
      </trkpt>
      <trkpt lat="43.96705" lon="5.10633">
        <ele>360.15</ele>
        <time>2015-11-23T09:50:20Z</time>
      </trkpt>
      <trkpt lat="43.96707" lon="5.10614">
        <ele>360.15</ele>
        <time>2015-11-23T09:50:35Z</time>
      </trkpt>
      <trkpt lat="43.96703" lon="5.10595">
        <ele>359.19</ele>
        <time>2015-11-23T09:50:52Z</time>
      </trkpt>
      <trkpt lat="43.96696" lon="5.10578">
        <ele>357.75</ele>
        <time>2015-11-23T09:51:08Z</time>
      </trkpt>
      <trkpt lat="43.96693" lon="5.10553">
        <ele>357.27</ele>
        <time>2015-11-23T09:51:25Z</time>
      </trkpt>
      <trkpt lat="43.96691" lon="5.10541">
        <ele>357.75</ele>
        <time>2015-11-23T09:51:38Z</time>
      </trkpt>
      <trkpt lat="43.96686" lon="5.10528">
        <ele>356.79</ele>
        <time>2015-11-23T09:51:48Z</time>
      </trkpt>
      <trkpt lat="43.96676" lon="5.10518">
        <ele>356.31</ele>
        <time>2015-11-23T09:51:59Z</time>
      </trkpt>
      <trkpt lat="43.96674" lon="5.10517">
        <ele>356.31</ele>
        <time>2015-11-23T09:52:01Z</time>
      </trkpt>
      <trkpt lat="43.96666" lon="5.10501">
        <ele>356.31</ele>
        <time>2015-11-23T09:52:16Z</time>
      </trkpt>
      <trkpt lat="43.96663" lon="5.10498">
        <ele>355.83</ele>
        <time>2015-11-23T09:52:21Z</time>
      </trkpt>
      <trkpt lat="43.96653" lon="5.1049">
        <ele>355.34</ele>
        <time>2015-11-23T09:52:36Z</time>
      </trkpt>
      <trkpt lat="43.96645" lon="5.10487">
        <ele>354.38</ele>
        <time>2015-11-23T09:52:48Z</time>
      </trkpt>
      <trkpt lat="43.96636" lon="5.10481">
        <ele>353.42</ele>
        <time>2015-11-23T09:53:00Z</time>
      </trkpt>
      <trkpt lat="43.96622" lon="5.10478">
        <ele>351.98</ele>
        <time>2015-11-23T09:53:14Z</time>
      </trkpt>
      <trkpt lat="43.96616" lon="5.10477">
        <ele>351.5</ele>
        <time>2015-11-23T09:53:22Z</time>
      </trkpt>
      <trkpt lat="43.96605" lon="5.10472">
        <ele>350.54</ele>
        <time>2015-11-23T09:53:36Z</time>
      </trkpt>
      <trkpt lat="43.96597" lon="5.10462">
        <ele>349.1</ele>
        <time>2015-11-23T09:53:49Z</time>
      </trkpt>
      <trkpt lat="43.96589" lon="5.10451">
        <ele>349.1</ele>
        <time>2015-11-23T09:54:02Z</time>
      </trkpt>
      <trkpt lat="43.96583" lon="5.10438">
        <ele>349.1</ele>
        <time>2015-11-23T09:54:15Z</time>
      </trkpt>
      <trkpt lat="43.96575" lon="5.10418">
        <ele>349.1</ele>
        <time>2015-11-23T09:54:30Z</time>
      </trkpt>
      <trkpt lat="43.96566" lon="5.10404">
        <ele>349.1</ele>
        <time>2015-11-23T09:54:44Z</time>
      </trkpt>
      <trkpt lat="43.96565" lon="5.10402">
        <ele>349.1</ele>
        <time>2015-11-23T09:54:47Z</time>
      </trkpt>
      <trkpt lat="43.96553" lon="5.1039">
        <ele>348.62</ele>
        <time>2015-11-23T09:55:00Z</time>
      </trkpt>
      <trkpt lat="43.96542" lon="5.10388">
        <ele>346.69</ele>
        <time>2015-11-23T09:55:18Z</time>
      </trkpt>
      <trkpt lat="43.96531" lon="5.10387">
        <ele>345.25</ele>
        <time>2015-11-23T09:55:32Z</time>
      </trkpt>
      <trkpt lat="43.9652" lon="5.10385">
        <ele>343.81</ele>
        <time>2015-11-23T09:55:47Z</time>
      </trkpt>
      <trkpt lat="43.9651" lon="5.10374">
        <ele>344.77</ele>
        <time>2015-11-23T09:55:57Z</time>
      </trkpt>
      <trkpt lat="43.96499" lon="5.10358">
        <ele>346.21</ele>
        <time>2015-11-23T09:56:12Z</time>
      </trkpt>
      <trkpt lat="43.96488" lon="5.10353">
        <ele>344.29</ele>
        <time>2015-11-23T09:56:26Z</time>
      </trkpt>
      <trkpt lat="43.96478" lon="5.10347">
        <ele>344.77</ele>
        <time>2015-11-23T09:56:39Z</time>
      </trkpt>
      <trkpt lat="43.96473" lon="5.1034">
        <ele>345.73</ele>
        <time>2015-11-23T09:56:48Z</time>
      </trkpt>
      <trkpt lat="43.96471" lon="5.10338">
        <ele>345.73</ele>
        <time>2015-11-23T09:56:51Z</time>
      </trkpt>
      <trkpt lat="43.96458" lon="5.10327">
        <ele>345.73</ele>
        <time>2015-11-23T09:57:06Z</time>
      </trkpt>
      <trkpt lat="43.96447" lon="5.10318">
        <ele>345.25</ele>
        <time>2015-11-23T09:57:21Z</time>
      </trkpt>
      <trkpt lat="43.96446" lon="5.10319">
        <ele>345.25</ele>
        <time>2015-11-23T09:57:42Z</time>
      </trkpt>
      <trkpt lat="43.96442" lon="5.10314">
        <ele>345.25</ele>
        <time>2015-11-23T09:57:55Z</time>
      </trkpt>
      <trkpt lat="43.96443" lon="5.10317">
        <ele>345.25</ele>
        <time>2015-11-23T09:58:11Z</time>
      </trkpt>
      <trkpt lat="43.96442" lon="5.10315">
        <ele>345.25</ele>
        <time>2015-11-23T09:58:25Z</time>
      </trkpt>
      <trkpt lat="43.96441" lon="5.10311">
        <ele>344.77</ele>
        <time>2015-11-23T09:58:49Z</time>
      </trkpt>
      <trkpt lat="43.96431" lon="5.10304">
        <ele>343.81</ele>
        <time>2015-11-23T09:59:04Z</time>
      </trkpt>
      <trkpt lat="43.96425" lon="5.10297">
        <ele>341.89</ele>
        <time>2015-11-23T09:59:17Z</time>
      </trkpt>
      <trkpt lat="43.96413" lon="5.10294">
        <ele>340.44</ele>
        <time>2015-11-23T09:59:32Z</time>
      </trkpt>
      <trkpt lat="43.96411" lon="5.10299">
        <ele>340.44</ele>
        <time>2015-11-23T09:59:36Z</time>
      </trkpt>
      <trkpt lat="43.96411" lon="5.10302">
        <ele>339.48</ele>
        <time>2015-11-23T09:59:38Z</time>
      </trkpt>
      <trkpt lat="43.9641" lon="5.10308">
        <ele>339.48</ele>
        <time>2015-11-23T09:59:43Z</time>
      </trkpt>
      <trkpt lat="43.96407" lon="5.10312">
        <ele>339</ele>
        <time>2015-11-23T09:59:50Z</time>
      </trkpt>
      <trkpt lat="43.964" lon="5.10311">
        <ele>338.52</ele>
        <time>2015-11-23T09:59:58Z</time>
      </trkpt>
      <trkpt lat="43.96395" lon="5.10309">
        <ele>338.04</ele>
        <time>2015-11-23T10:00:04Z</time>
      </trkpt>
      <trkpt lat="43.96389" lon="5.10308">
        <ele>338.04</ele>
        <time>2015-11-23T10:00:24Z</time>
      </trkpt>
      <trkpt lat="43.96385" lon="5.10302">
        <ele>337.08</ele>
        <time>2015-11-23T10:00:46Z</time>
      </trkpt>
      <trkpt lat="43.96379" lon="5.10294">
        <ele>336.12</ele>
        <time>2015-11-23T10:00:58Z</time>
      </trkpt>
      <trkpt lat="43.96378" lon="5.10293">
        <ele>336.12</ele>
        <time>2015-11-23T10:01:00Z</time>
      </trkpt>
      <trkpt lat="43.96369" lon="5.1028">
        <ele>334.68</ele>
        <time>2015-11-23T10:01:16Z</time>
      </trkpt>
      <trkpt lat="43.96363" lon="5.10267">
        <ele>333.23</ele>
        <time>2015-11-23T10:01:29Z</time>
      </trkpt>
      <trkpt lat="43.96362" lon="5.10267">
        <ele>333.23</ele>
        <time>2015-11-23T10:01:30Z</time>
      </trkpt>
      <trkpt lat="43.96359" lon="5.10263">
        <ele>333.23</ele>
        <time>2015-11-23T10:01:34Z</time>
      </trkpt>
      <trkpt lat="43.96354" lon="5.10258">
        <ele>332.75</ele>
        <time>2015-11-23T10:01:40Z</time>
      </trkpt>
      <trkpt lat="43.9635" lon="5.10254">
        <ele>332.27</ele>
        <time>2015-11-23T10:01:45Z</time>
      </trkpt>
      <trkpt lat="43.96347" lon="5.10249">
        <ele>332.27</ele>
        <time>2015-11-23T10:01:50Z</time>
      </trkpt>
      <trkpt lat="43.96339" lon="5.10235">
        <ele>330.83</ele>
        <time>2015-11-23T10:02:05Z</time>
      </trkpt>
      <trkpt lat="43.96334" lon="5.10223">
        <ele>329.87</ele>
        <time>2015-11-23T10:02:21Z</time>
      </trkpt>
      <trkpt lat="43.96323" lon="5.10205">
        <ele>327.95</ele>
        <time>2015-11-23T10:02:37Z</time>
      </trkpt>
      <trkpt lat="43.96313" lon="5.10191">
        <ele>326.5</ele>
        <time>2015-11-23T10:02:52Z</time>
      </trkpt>
      <trkpt lat="43.96309" lon="5.10188">
        <ele>326.02</ele>
        <time>2015-11-23T10:02:58Z</time>
      </trkpt>
      <trkpt lat="43.96298" lon="5.10167">
        <ele>324.58</ele>
        <time>2015-11-23T10:03:17Z</time>
      </trkpt>
      <trkpt lat="43.96294" lon="5.10158">
        <ele>323.62</ele>
        <time>2015-11-23T10:03:27Z</time>
      </trkpt>
      <trkpt lat="43.96289" lon="5.1014">
        <ele>322.66</ele>
        <time>2015-11-23T10:03:42Z</time>
      </trkpt>
      <trkpt lat="43.96288" lon="5.10119">
        <ele>322.18</ele>
        <time>2015-11-23T10:03:57Z</time>
      </trkpt>
      <trkpt lat="43.96287" lon="5.10111">
        <ele>322.18</ele>
        <time>2015-11-23T10:04:03Z</time>
      </trkpt>
      <trkpt lat="43.96296" lon="5.101">
        <ele>320.26</ele>
        <time>2015-11-23T10:04:18Z</time>
      </trkpt>
      <trkpt lat="43.96307" lon="5.10092">
        <ele>319.3</ele>
        <time>2015-11-23T10:04:31Z</time>
      </trkpt>
      <trkpt lat="43.96318" lon="5.10082">
        <ele>318.33</ele>
        <time>2015-11-23T10:04:46Z</time>
      </trkpt>
      <trkpt lat="43.96341" lon="5.10068">
        <ele>317.37</ele>
        <time>2015-11-23T10:05:04Z</time>
      </trkpt>
      <trkpt lat="43.96352" lon="5.10058">
        <ele>316.41</ele>
        <time>2015-11-23T10:05:20Z</time>
      </trkpt>
      <trkpt lat="43.96365" lon="5.1004">
        <ele>315.93</ele>
        <time>2015-11-23T10:05:36Z</time>
      </trkpt>
      <trkpt lat="43.96378" lon="5.10035">
        <ele>314.97</ele>
        <time>2015-11-23T10:05:52Z</time>
      </trkpt>
      <trkpt lat="43.96393" lon="5.10038">
        <ele>314.01</ele>
        <time>2015-11-23T10:06:06Z</time>
      </trkpt>
      <trkpt lat="43.96396" lon="5.10034">
        <ele>313.53</ele>
        <time>2015-11-23T10:06:10Z</time>
      </trkpt>
      <trkpt lat="43.9641" lon="5.10013">
        <ele>313.05</ele>
        <time>2015-11-23T10:06:27Z</time>
      </trkpt>
      <trkpt lat="43.96416" lon="5.10006">
        <ele>312.57</ele>
        <time>2015-11-23T10:06:36Z</time>
      </trkpt>
      <trkpt lat="43.96427" lon="5.0999">
        <ele>312.57</ele>
        <time>2015-11-23T10:06:51Z</time>
      </trkpt>
      <trkpt lat="43.96434" lon="5.09972">
        <ele>311.6</ele>
        <time>2015-11-23T10:07:05Z</time>
      </trkpt>
      <trkpt lat="43.96446" lon="5.09955">
        <ele>310.64</ele>
        <time>2015-11-23T10:07:21Z</time>
      </trkpt>
      <trkpt lat="43.96449" lon="5.09942">
        <ele>309.68</ele>
        <time>2015-11-23T10:07:33Z</time>
      </trkpt>
      <trkpt lat="43.96439" lon="5.0994">
        <ele>308.72</ele>
        <time>2015-11-23T10:07:46Z</time>
      </trkpt>
      <trkpt lat="43.96432" lon="5.0994">
        <ele>307.28</ele>
        <time>2015-11-23T10:07:59Z</time>
      </trkpt>
      <trkpt lat="43.96424" lon="5.0994">
        <ele>306.32</ele>
        <time>2015-11-23T10:08:12Z</time>
      </trkpt>
      <trkpt lat="43.9642" lon="5.09948">
        <ele>306.8</ele>
        <time>2015-11-23T10:08:28Z</time>
      </trkpt>
      <trkpt lat="43.96422" lon="5.09944">
        <ele>306.32</ele>
        <time>2015-11-23T10:09:01Z</time>
      </trkpt>
      <trkpt lat="43.96426" lon="5.09938">
        <ele>306.32</ele>
        <time>2015-11-23T10:09:15Z</time>
      </trkpt>
      <trkpt lat="43.96428" lon="5.09936">
        <ele>306.8</ele>
        <time>2015-11-23T10:09:31Z</time>
      </trkpt>
      <trkpt lat="43.96422" lon="5.09924">
        <ele>304.88</ele>
        <time>2015-11-23T10:09:44Z</time>
      </trkpt>
      <trkpt lat="43.96426" lon="5.09911">
        <ele>302.95</ele>
        <time>2015-11-23T10:09:57Z</time>
      </trkpt>
      <trkpt lat="43.9643" lon="5.09908">
        <ele>302.47</ele>
        <time>2015-11-23T10:10:08Z</time>
      </trkpt>
      <trkpt lat="43.96438" lon="5.09902">
        <ele>302.47</ele>
        <time>2015-11-23T10:10:23Z</time>
      </trkpt>
      <trkpt lat="43.96451" lon="5.09897">
        <ele>302.47</ele>
        <time>2015-11-23T10:10:38Z</time>
      </trkpt>
      <trkpt lat="43.96464" lon="5.09891">
        <ele>301.03</ele>
        <time>2015-11-23T10:10:54Z</time>
      </trkpt>
      <trkpt lat="43.96473" lon="5.09901">
        <ele>299.59</ele>
        <time>2015-11-23T10:11:10Z</time>
      </trkpt>
      <trkpt lat="43.9648" lon="5.09899">
        <ele>297.18</ele>
        <time>2015-11-23T10:11:25Z</time>
      </trkpt>
      <trkpt lat="43.96481" lon="5.09894">
        <ele>296.7</ele>
        <time>2015-11-23T10:11:30Z</time>
      </trkpt>
      <trkpt lat="43.96484" lon="5.09877">
        <ele>294.78</ele>
        <time>2015-11-23T10:11:45Z</time>
      </trkpt>
      <trkpt lat="43.96485" lon="5.09863">
        <ele>292.38</ele>
        <time>2015-11-23T10:12:03Z</time>
      </trkpt>
      <trkpt lat="43.96487" lon="5.0985">
        <ele>290.46</ele>
        <time>2015-11-23T10:12:17Z</time>
      </trkpt>
      <trkpt lat="43.96487" lon="5.09847">
        <ele>289.97</ele>
        <time>2015-11-23T10:12:19Z</time>
      </trkpt>
      <trkpt lat="43.96489" lon="5.0983">
        <ele>289.01</ele>
        <time>2015-11-23T10:12:32Z</time>
      </trkpt>
      <trkpt lat="43.96495" lon="5.09814">
        <ele>287.09</ele>
        <time>2015-11-23T10:12:46Z</time>
      </trkpt>
      <trkpt lat="43.96503" lon="5.09799">
        <ele>284.69</ele>
        <time>2015-11-23T10:13:02Z</time>
      </trkpt>
      <trkpt lat="43.96514" lon="5.09788">
        <ele>282.28</ele>
        <time>2015-11-23T10:13:19Z</time>
      </trkpt>
      <trkpt lat="43.9652" lon="5.09775">
        <ele>279.88</ele>
        <time>2015-11-23T10:13:34Z</time>
      </trkpt>
      <trkpt lat="43.96525" lon="5.09762">
        <ele>277</ele>
        <time>2015-11-23T10:13:48Z</time>
      </trkpt>
      <trkpt lat="43.96526" lon="5.09759">
        <ele>276.04</ele>
        <time>2015-11-23T10:13:53Z</time>
      </trkpt>
      <trkpt lat="43.9653" lon="5.09741">
        <ele>273.15</ele>
        <time>2015-11-23T10:14:07Z</time>
      </trkpt>
      <trkpt lat="43.96534" lon="5.09724">
        <ele>272.19</ele>
        <time>2015-11-23T10:14:20Z</time>
      </trkpt>
      <trkpt lat="43.96537" lon="5.09701">
        <ele>269.79</ele>
        <time>2015-11-23T10:14:38Z</time>
      </trkpt>
      <trkpt lat="43.96535" lon="5.09681">
        <ele>268.35</ele>
        <time>2015-11-23T10:14:52Z</time>
      </trkpt>
      <trkpt lat="43.96534" lon="5.09677">
        <ele>268.35</ele>
        <time>2015-11-23T10:14:55Z</time>
      </trkpt>
      <trkpt lat="43.96532" lon="5.0967">
        <ele>267.86</ele>
        <time>2015-11-23T10:15:00Z</time>
      </trkpt>
      <trkpt lat="43.96526" lon="5.09657">
        <ele>266.9</ele>
        <time>2015-11-23T10:15:12Z</time>
      </trkpt>
      <trkpt lat="43.96518" lon="5.09641">
        <ele>264.98</ele>
        <time>2015-11-23T10:15:26Z</time>
      </trkpt>
      <trkpt lat="43.96504" lon="5.09629">
        <ele>263.06</ele>
        <time>2015-11-23T10:15:41Z</time>
      </trkpt>
      <trkpt lat="43.96496" lon="5.09617">
        <ele>261.14</ele>
        <time>2015-11-23T10:15:55Z</time>
      </trkpt>
      <trkpt lat="43.96487" lon="5.0961">
        <ele>258.73</ele>
        <time>2015-11-23T10:16:09Z</time>
      </trkpt>
      <trkpt lat="43.9648" lon="5.09596">
        <ele>256.33</ele>
        <time>2015-11-23T10:16:27Z</time>
      </trkpt>
      <trkpt lat="43.96474" lon="5.0958">
        <ele>254.89</ele>
        <time>2015-11-23T10:16:43Z</time>
      </trkpt>
      <trkpt lat="43.96471" lon="5.09563">
        <ele>253.93</ele>
        <time>2015-11-23T10:16:56Z</time>
      </trkpt>
      <trkpt lat="43.96466" lon="5.09548">
        <ele>253.44</ele>
        <time>2015-11-23T10:17:10Z</time>
      </trkpt>
      <trkpt lat="43.9646" lon="5.09532">
        <ele>252</ele>
        <time>2015-11-23T10:17:27Z</time>
      </trkpt>
      <trkpt lat="43.9646" lon="5.09528">
        <ele>252</ele>
        <time>2015-11-23T10:17:47Z</time>
      </trkpt>
      <trkpt lat="43.96459" lon="5.09526">
        <ele>252.96</ele>
        <time>2015-11-23T10:18:06Z</time>
      </trkpt>
      <trkpt lat="43.96457" lon="5.09525">
        <ele>252.48</ele>
        <time>2015-11-23T10:18:25Z</time>
      </trkpt>
      <trkpt lat="43.96459" lon="5.09525">
        <ele>252.48</ele>
        <time>2015-11-23T10:18:46Z</time>
      </trkpt>
      <trkpt lat="43.96459" lon="5.09522">
        <ele>252.48</ele>
        <time>2015-11-23T10:19:03Z</time>
      </trkpt>
      <trkpt lat="43.96454" lon="5.09516">
        <ele>251.52</ele>
        <time>2015-11-23T10:19:18Z</time>
      </trkpt>
      <trkpt lat="43.96438" lon="5.09515">
        <ele>250.08</ele>
        <time>2015-11-23T10:19:34Z</time>
      </trkpt>
      <trkpt lat="43.96433" lon="5.09505">
        <ele>248.64</ele>
        <time>2015-11-23T10:19:45Z</time>
      </trkpt>
      <trkpt lat="43.96442" lon="5.09492">
        <ele>245.75</ele>
        <time>2015-11-23T10:20:01Z</time>
      </trkpt>
      <trkpt lat="43.96457" lon="5.09485">
        <ele>245.27</ele>
        <time>2015-11-23T10:20:16Z</time>
      </trkpt>
      <trkpt lat="43.96471" lon="5.09482">
        <ele>244.31</ele>
        <time>2015-11-23T10:20:30Z</time>
      </trkpt>
      <trkpt lat="43.9649" lon="5.09477">
        <ele>244.79</ele>
        <time>2015-11-23T10:20:45Z</time>
      </trkpt>
      <trkpt lat="43.96501" lon="5.0947">
        <ele>242.87</ele>
        <time>2015-11-23T10:20:57Z</time>
      </trkpt>
      <trkpt lat="43.96503" lon="5.09469">
        <ele>242.87</ele>
        <time>2015-11-23T10:20:59Z</time>
      </trkpt>
      <trkpt lat="43.96512" lon="5.09465">
        <ele>242.87</ele>
        <time>2015-11-23T10:21:08Z</time>
      </trkpt>
      <trkpt lat="43.96524" lon="5.09459">
        <ele>240.47</ele>
        <time>2015-11-23T10:21:22Z</time>
      </trkpt>
      <trkpt lat="43.9653" lon="5.09456">
        <ele>239.99</ele>
        <time>2015-11-23T10:21:29Z</time>
      </trkpt>
      <trkpt lat="43.96544" lon="5.0945">
        <ele>239.51</ele>
        <time>2015-11-23T10:21:41Z</time>
      </trkpt>
      <trkpt lat="43.96565" lon="5.0944">
        <ele>241.43</ele>
        <time>2015-11-23T10:22:00Z</time>
      </trkpt>
      <trkpt lat="43.96578" lon="5.09434">
        <ele>244.31</ele>
        <time>2015-11-23T10:22:15Z</time>
      </trkpt>
      <trkpt lat="43.9659" lon="5.09435">
        <ele>246.72</ele>
        <time>2015-11-23T10:22:30Z</time>
      </trkpt>
      <trkpt lat="43.96602" lon="5.0944">
        <ele>249.12</ele>
        <time>2015-11-23T10:22:45Z</time>
      </trkpt>
      <trkpt lat="43.96619" lon="5.09438">
        <ele>252</ele>
        <time>2015-11-23T10:23:03Z</time>
      </trkpt>
      <trkpt lat="43.96633" lon="5.09428">
        <ele>253.44</ele>
        <time>2015-11-23T10:23:17Z</time>
      </trkpt>
      <trkpt lat="43.96634" lon="5.0942">
        <ele>254.41</ele>
        <time>2015-11-23T10:23:31Z</time>
      </trkpt>
      <trkpt lat="43.96628" lon="5.09412">
        <ele>257.77</ele>
        <time>2015-11-23T10:23:44Z</time>
      </trkpt>
      <trkpt lat="43.96625" lon="5.09403">
        <ele>258.73</ele>
        <time>2015-11-23T10:23:59Z</time>
      </trkpt>
      <trkpt lat="43.96624" lon="5.09396">
        <ele>258.73</ele>
        <time>2015-11-23T10:24:10Z</time>
      </trkpt>
      <trkpt lat="43.96628" lon="5.09391">
        <ele>258.73</ele>
        <time>2015-11-23T10:24:22Z</time>
      </trkpt>
      <trkpt lat="43.96639" lon="5.09388">
        <ele>257.29</ele>
        <time>2015-11-23T10:24:36Z</time>
      </trkpt>
      <trkpt lat="43.96642" lon="5.09386">
        <ele>257.29</ele>
        <time>2015-11-23T10:24:39Z</time>
      </trkpt>
      <trkpt lat="43.96649" lon="5.09381">
        <ele>256.81</ele>
        <time>2015-11-23T10:24:49Z</time>
      </trkpt>
      <trkpt lat="43.96658" lon="5.09374">
        <ele>257.29</ele>
        <time>2015-11-23T10:24:59Z</time>
      </trkpt>
      <trkpt lat="43.9666" lon="5.09371">
        <ele>257.77</ele>
        <time>2015-11-23T10:25:01Z</time>
      </trkpt>
      <trkpt lat="43.96672" lon="5.0936">
        <ele>258.73</ele>
        <time>2015-11-23T10:25:15Z</time>
      </trkpt>
      <trkpt lat="43.96683" lon="5.09346">
        <ele>260.65</ele>
        <time>2015-11-23T10:25:31Z</time>
      </trkpt>
      <trkpt lat="43.96697" lon="5.09328">
        <ele>262.58</ele>
        <time>2015-11-23T10:25:46Z</time>
      </trkpt>
      <trkpt lat="43.96708" lon="5.09312">
        <ele>265.46</ele>
        <time>2015-11-23T10:26:02Z</time>
      </trkpt>
      <trkpt lat="43.96719" lon="5.093">
        <ele>266.9</ele>
        <time>2015-11-23T10:26:16Z</time>
      </trkpt>
      <trkpt lat="43.96724" lon="5.09295">
        <ele>266.9</ele>
        <time>2015-11-23T10:26:23Z</time>
      </trkpt>
      <trkpt lat="43.96726" lon="5.09294">
        <ele>267.38</ele>
        <time>2015-11-23T10:26:25Z</time>
      </trkpt>
      <trkpt lat="43.96737" lon="5.09286">
        <ele>268.83</ele>
        <time>2015-11-23T10:26:38Z</time>
      </trkpt>
      <trkpt lat="43.96738" lon="5.09283">
        <ele>269.31</ele>
        <time>2015-11-23T10:26:40Z</time>
      </trkpt>
      <trkpt lat="43.96745" lon="5.0928">
        <ele>269.79</ele>
        <time>2015-11-23T10:26:54Z</time>
      </trkpt>
      <trkpt lat="43.96745" lon="5.09282">
        <ele>269.31</ele>
        <time>2015-11-23T10:27:20Z</time>
      </trkpt>
      <trkpt lat="43.96752" lon="5.09283">
        <ele>269.79</ele>
        <time>2015-11-23T10:27:33Z</time>
      </trkpt>
      <trkpt lat="43.96763" lon="5.09284">
        <ele>269.79</ele>
        <time>2015-11-23T10:27:47Z</time>
      </trkpt>
      <trkpt lat="43.96767" lon="5.09285">
        <ele>270.27</ele>
        <time>2015-11-23T10:27:51Z</time>
      </trkpt>
      <trkpt lat="43.9678" lon="5.09286">
        <ele>270.75</ele>
        <time>2015-11-23T10:28:05Z</time>
      </trkpt>
      <trkpt lat="43.96784" lon="5.09287">
        <ele>270.75</ele>
        <time>2015-11-23T10:28:09Z</time>
      </trkpt>
      <trkpt lat="43.96796" lon="5.09287">
        <ele>272.19</ele>
        <time>2015-11-23T10:28:21Z</time>
      </trkpt>
      <trkpt lat="43.96805" lon="5.09289">
        <ele>272.67</ele>
        <time>2015-11-23T10:28:32Z</time>
      </trkpt>
      <trkpt lat="43.96816" lon="5.09289">
        <ele>273.15</ele>
        <time>2015-11-23T10:28:42Z</time>
      </trkpt>
      <trkpt lat="43.96829" lon="5.09293">
        <ele>273.63</ele>
        <time>2015-11-23T10:28:55Z</time>
      </trkpt>
      <trkpt lat="43.96832" lon="5.09292">
        <ele>273.63</ele>
        <time>2015-11-23T10:28:58Z</time>
      </trkpt>
      <trkpt lat="43.96851" lon="5.09296">
        <ele>274.59</ele>
        <time>2015-11-23T10:29:16Z</time>
      </trkpt>
      <trkpt lat="43.96864" lon="5.09298">
        <ele>275.07</ele>
        <time>2015-11-23T10:29:28Z</time>
      </trkpt>
      <trkpt lat="43.96875" lon="5.093">
        <ele>275.07</ele>
        <time>2015-11-23T10:29:38Z</time>
      </trkpt>
      <trkpt lat="43.96896" lon="5.09304">
        <ele>276.04</ele>
        <time>2015-11-23T10:29:56Z</time>
      </trkpt>
      <trkpt lat="43.9691" lon="5.09303">
        <ele>276.52</ele>
        <time>2015-11-23T10:30:10Z</time>
      </trkpt>
      <trkpt lat="43.96923" lon="5.09305">
        <ele>277</ele>
        <time>2015-11-23T10:30:24Z</time>
      </trkpt>
      <trkpt lat="43.96935" lon="5.09307">
        <ele>277.48</ele>
        <time>2015-11-23T10:30:37Z</time>
      </trkpt>
      <trkpt lat="43.96938" lon="5.09307">
        <ele>277.48</ele>
        <time>2015-11-23T10:30:40Z</time>
      </trkpt>
      <trkpt lat="43.96946" lon="5.09308">
        <ele>277.96</ele>
        <time>2015-11-23T10:30:47Z</time>
      </trkpt>
      <trkpt lat="43.96952" lon="5.0931">
        <ele>277.96</ele>
        <time>2015-11-23T10:30:53Z</time>
      </trkpt>
      <trkpt lat="43.96971" lon="5.09314">
        <ele>278.44</ele>
        <time>2015-11-23T10:31:09Z</time>
      </trkpt>
      <trkpt lat="43.96983" lon="5.09312">
        <ele>278.92</ele>
        <time>2015-11-23T10:31:24Z</time>
      </trkpt>
      <trkpt lat="43.96983" lon="5.09315">
        <ele>279.4</ele>
        <time>2015-11-23T10:31:49Z</time>
      </trkpt>
      <trkpt lat="43.96984" lon="5.09314">
        <ele>279.4</ele>
        <time>2015-11-23T10:32:09Z</time>
      </trkpt>
      <trkpt lat="43.96985" lon="5.09313">
        <ele>278.92</ele>
        <time>2015-11-23T10:32:24Z</time>
      </trkpt>
      <trkpt lat="43.96983" lon="5.09312">
        <ele>278.92</ele>
        <time>2015-11-23T10:32:36Z</time>
      </trkpt>
      <trkpt lat="43.96983" lon="5.0931">
        <ele>278.92</ele>
        <time>2015-11-23T10:32:51Z</time>
      </trkpt>
      <trkpt lat="43.96983" lon="5.093">
        <ele>277.48</ele>
        <time>2015-11-23T10:33:05Z</time>
      </trkpt>
      <trkpt lat="43.96981" lon="5.09291">
        <ele>276.52</ele>
        <time>2015-11-23T10:33:16Z</time>
      </trkpt>
      <trkpt lat="43.9698" lon="5.09268">
        <ele>274.59</ele>
        <time>2015-11-23T10:33:32Z</time>
      </trkpt>
      <trkpt lat="43.9698" lon="5.09263">
        <ele>274.59</ele>
        <time>2015-11-23T10:33:36Z</time>
      </trkpt>
      <trkpt lat="43.96984" lon="5.09244">
        <ele>273.15</ele>
        <time>2015-11-23T10:33:52Z</time>
      </trkpt>
      <trkpt lat="43.96989" lon="5.09225">
        <ele>271.71</ele>
        <time>2015-11-23T10:34:08Z</time>
      </trkpt>
      <trkpt lat="43.96992" lon="5.09208">
        <ele>269.79</ele>
        <time>2015-11-23T10:34:23Z</time>
      </trkpt>
      <trkpt lat="43.96992" lon="5.09192">
        <ele>268.35</ele>
        <time>2015-11-23T10:34:36Z</time>
      </trkpt>
      <trkpt lat="43.96991" lon="5.09182">
        <ele>267.38</ele>
        <time>2015-11-23T10:34:48Z</time>
      </trkpt>
      <trkpt lat="43.96993" lon="5.09179">
        <ele>266.9</ele>
        <time>2015-11-23T10:35:02Z</time>
      </trkpt>
      <trkpt lat="43.96995" lon="5.09161">
        <ele>265.46</ele>
        <time>2015-11-23T10:35:15Z</time>
      </trkpt>
      <trkpt lat="43.96991" lon="5.09145">
        <ele>264.02</ele>
        <time>2015-11-23T10:35:27Z</time>
      </trkpt>
      <trkpt lat="43.96995" lon="5.0912">
        <ele>263.06</ele>
        <time>2015-11-23T10:35:43Z</time>
      </trkpt>
      <trkpt lat="43.96996" lon="5.09104">
        <ele>260.17</ele>
        <time>2015-11-23T10:35:55Z</time>
      </trkpt>
      <trkpt lat="43.96996" lon="5.09093">
        <ele>259.21</ele>
        <time>2015-11-23T10:36:03Z</time>
      </trkpt>
      <trkpt lat="43.96994" lon="5.09091">
        <ele>259.21</ele>
        <time>2015-11-23T10:36:05Z</time>
      </trkpt>
      <trkpt lat="43.96989" lon="5.09083">
        <ele>259.21</ele>
        <time>2015-11-23T10:36:12Z</time>
      </trkpt>
      <trkpt lat="43.96974" lon="5.09071">
        <ele>258.25</ele>
        <time>2015-11-23T10:36:28Z</time>
      </trkpt>
      <trkpt lat="43.96961" lon="5.09068">
        <ele>256.33</ele>
        <time>2015-11-23T10:36:46Z</time>
      </trkpt>
      <trkpt lat="43.96964" lon="5.09069">
        <ele>256.81</ele>
        <time>2015-11-23T10:36:57Z</time>
      </trkpt>
      <trkpt lat="43.96972" lon="5.09071">
        <ele>257.77</ele>
        <time>2015-11-23T10:37:08Z</time>
      </trkpt>
      <trkpt lat="43.96977" lon="5.09071">
        <ele>258.25</ele>
        <time>2015-11-23T10:37:13Z</time>
      </trkpt>
      <trkpt lat="43.96986" lon="5.09077">
        <ele>259.21</ele>
        <time>2015-11-23T10:37:23Z</time>
      </trkpt>
      <trkpt lat="43.96991" lon="5.09074">
        <ele>258.73</ele>
        <time>2015-11-23T10:37:27Z</time>
      </trkpt>
      <trkpt lat="43.96998" lon="5.09065">
        <ele>258.73</ele>
        <time>2015-11-23T10:37:36Z</time>
      </trkpt>
      <trkpt lat="43.97001" lon="5.09064">
        <ele>258.73</ele>
        <time>2015-11-23T10:37:38Z</time>
      </trkpt>
      <trkpt lat="43.97007" lon="5.09053">
        <ele>259.69</ele>
        <time>2015-11-23T10:37:50Z</time>
      </trkpt>
      <trkpt lat="43.9701" lon="5.09056">
        <ele>260.17</ele>
        <time>2015-11-23T10:38:02Z</time>
      </trkpt>
      <trkpt lat="43.97016" lon="5.09058">
        <ele>260.17</ele>
        <time>2015-11-23T10:38:13Z</time>
      </trkpt>
      <trkpt lat="43.97021" lon="5.09049">
        <ele>259.69</ele>
        <time>2015-11-23T10:38:22Z</time>
      </trkpt>
      <trkpt lat="43.97016" lon="5.09036">
        <ele>260.17</ele>
        <time>2015-11-23T10:38:37Z</time>
      </trkpt>
      <trkpt lat="43.97013" lon="5.09031">
        <ele>260.65</ele>
        <time>2015-11-23T10:38:43Z</time>
      </trkpt>
      <trkpt lat="43.97012" lon="5.09021">
        <ele>261.14</ele>
        <time>2015-11-23T10:38:55Z</time>
      </trkpt>
      <trkpt lat="43.97013" lon="5.09016">
        <ele>262.1</ele>
        <time>2015-11-23T10:39:00Z</time>
      </trkpt>
      <trkpt lat="43.97006" lon="5.09011">
        <ele>263.06</ele>
        <time>2015-11-23T10:39:13Z</time>
      </trkpt>
      <trkpt lat="43.97001" lon="5.09009">
        <ele>263.54</ele>
        <time>2015-11-23T10:39:18Z</time>
      </trkpt>
      <trkpt lat="43.96991" lon="5.08999">
        <ele>264.5</ele>
        <time>2015-11-23T10:39:33Z</time>
      </trkpt>
      <trkpt lat="43.96988" lon="5.08998">
        <ele>264.5</ele>
        <time>2015-11-23T10:39:47Z</time>
      </trkpt>
      <trkpt lat="43.96986" lon="5.08995">
        <ele>264.5</ele>
        <time>2015-11-23T10:39:50Z</time>
      </trkpt>
      <trkpt lat="43.96971" lon="5.08983">
        <ele>264.5</ele>
        <time>2015-11-23T10:40:07Z</time>
      </trkpt>
      <trkpt lat="43.96963" lon="5.08979">
        <ele>264.02</ele>
        <time>2015-11-23T10:40:18Z</time>
      </trkpt>
      <trkpt lat="43.9696" lon="5.08978">
        <ele>264.02</ele>
        <time>2015-11-23T10:40:21Z</time>
      </trkpt>
      <trkpt lat="43.96942" lon="5.08973">
        <ele>263.54</ele>
        <time>2015-11-23T10:40:38Z</time>
      </trkpt>
      <trkpt lat="43.96931" lon="5.08967">
        <ele>262.58</ele>
        <time>2015-11-23T10:40:51Z</time>
      </trkpt>
      <trkpt lat="43.96919" lon="5.08963">
        <ele>262.1</ele>
        <time>2015-11-23T10:41:02Z</time>
      </trkpt>
      <trkpt lat="43.96916" lon="5.08961">
        <ele>262.58</ele>
        <time>2015-11-23T10:41:05Z</time>
      </trkpt>
      <trkpt lat="43.969" lon="5.08953">
        <ele>261.62</ele>
        <time>2015-11-23T10:41:20Z</time>
      </trkpt>
      <trkpt lat="43.96887" lon="5.08945">
        <ele>261.62</ele>
        <time>2015-11-23T10:41:34Z</time>
      </trkpt>
      <trkpt lat="43.96879" lon="5.08931">
        <ele>261.14</ele>
        <time>2015-11-23T10:41:48Z</time>
      </trkpt>
      <trkpt lat="43.96877" lon="5.08916">
        <ele>260.65</ele>
        <time>2015-11-23T10:41:59Z</time>
      </trkpt>
      <trkpt lat="43.96881" lon="5.08911">
        <ele>260.17</ele>
        <time>2015-11-23T10:42:05Z</time>
      </trkpt>
      <trkpt lat="43.96888" lon="5.08894">
        <ele>258.73</ele>
        <time>2015-11-23T10:42:20Z</time>
      </trkpt>
      <trkpt lat="43.96893" lon="5.0888">
        <ele>258.25</ele>
        <time>2015-11-23T10:42:32Z</time>
      </trkpt>
      <trkpt lat="43.96891" lon="5.08875">
        <ele>257.77</ele>
        <time>2015-11-23T10:42:36Z</time>
      </trkpt>
      <trkpt lat="43.96898" lon="5.08866">
        <ele>257.29</ele>
        <time>2015-11-23T10:42:45Z</time>
      </trkpt>
      <trkpt lat="43.96899" lon="5.08863">
        <ele>256.81</ele>
        <time>2015-11-23T10:42:47Z</time>
      </trkpt>
      <trkpt lat="43.96901" lon="5.0885">
        <ele>255.37</ele>
        <time>2015-11-23T10:43:00Z</time>
      </trkpt>
      <trkpt lat="43.96907" lon="5.08836">
        <ele>254.89</ele>
        <time>2015-11-23T10:43:15Z</time>
      </trkpt>
      <trkpt lat="43.96908" lon="5.08825">
        <ele>253.44</ele>
        <time>2015-11-23T10:43:28Z</time>
      </trkpt>
      <trkpt lat="43.9691" lon="5.08821">
        <ele>253.44</ele>
        <time>2015-11-23T10:43:39Z</time>
      </trkpt>
      <trkpt lat="43.96908" lon="5.08822">
        <ele>253.44</ele>
        <time>2015-11-23T10:43:49Z</time>
      </trkpt>
      <trkpt lat="43.96909" lon="5.08821">
        <ele>253.44</ele>
        <time>2015-11-23T10:43:59Z</time>
      </trkpt>
      <trkpt lat="43.96911" lon="5.08819">
        <ele>252</ele>
        <time>2015-11-23T10:44:13Z</time>
      </trkpt>
      <trkpt lat="43.96911" lon="5.08819">
        <ele>252</ele>
        <time>2015-11-23T10:44:36Z</time>
      </trkpt>
      <trkpt lat="43.96912" lon="5.08815">
        <ele>250.56</ele>
        <time>2015-11-23T10:44:49Z</time>
      </trkpt>
      <trkpt lat="43.9691" lon="5.08809">
        <ele>248.16</ele>
        <time>2015-11-23T10:45:02Z</time>
      </trkpt>
      <trkpt lat="43.96909" lon="5.08801">
        <ele>247.68</ele>
        <time>2015-11-23T10:45:16Z</time>
      </trkpt>
      <trkpt lat="43.96906" lon="5.08795">
        <ele>245.75</ele>
        <time>2015-11-23T10:45:38Z</time>
      </trkpt>
      <trkpt lat="43.96905" lon="5.08791">
        <ele>245.75</ele>
        <time>2015-11-23T10:45:44Z</time>
      </trkpt>
      <trkpt lat="43.96905" lon="5.08789">
        <ele>245.27</ele>
        <time>2015-11-23T10:45:46Z</time>
      </trkpt>
      <trkpt lat="43.96906" lon="5.0878">
        <ele>245.75</ele>
        <time>2015-11-23T10:45:54Z</time>
      </trkpt>
      <trkpt lat="43.96914" lon="5.08779">
        <ele>244.79</ele>
        <time>2015-11-23T10:46:06Z</time>
      </trkpt>
      <trkpt lat="43.96922" lon="5.08777">
        <ele>243.83</ele>
        <time>2015-11-23T10:46:15Z</time>
      </trkpt>
      <trkpt lat="43.96926" lon="5.08774">
        <ele>243.83</ele>
        <time>2015-11-23T10:46:19Z</time>
      </trkpt>
      <trkpt lat="43.96932" lon="5.08764">
        <ele>244.31</ele>
        <time>2015-11-23T10:46:27Z</time>
      </trkpt>
      <trkpt lat="43.96937" lon="5.08758">
        <ele>244.31</ele>
        <time>2015-11-23T10:46:35Z</time>
      </trkpt>
      <trkpt lat="43.96943" lon="5.08762">
        <ele>245.27</ele>
        <time>2015-11-23T10:46:41Z</time>
      </trkpt>
      <trkpt lat="43.96952" lon="5.08766">
        <ele>245.27</ele>
        <time>2015-11-23T10:46:51Z</time>
      </trkpt>
      <trkpt lat="43.96955" lon="5.08764">
        <ele>245.27</ele>
        <time>2015-11-23T10:46:55Z</time>
      </trkpt>
      <trkpt lat="43.9697" lon="5.08764">
        <ele>245.75</ele>
        <time>2015-11-23T10:47:10Z</time>
      </trkpt>
      <trkpt lat="43.96979" lon="5.08776">
        <ele>247.68</ele>
        <time>2015-11-23T10:47:24Z</time>
      </trkpt>
      <trkpt lat="43.96985" lon="5.08779">
        <ele>248.16</ele>
        <time>2015-11-23T10:47:33Z</time>
      </trkpt>
      <trkpt lat="43.96993" lon="5.0877">
        <ele>247.68</ele>
        <time>2015-11-23T10:47:44Z</time>
      </trkpt>
      <trkpt lat="43.96996" lon="5.08751">
        <ele>247.2</ele>
        <time>2015-11-23T10:48:00Z</time>
      </trkpt>
      <trkpt lat="43.97007" lon="5.08733">
        <ele>246.23</ele>
        <time>2015-11-23T10:48:17Z</time>
      </trkpt>
      <trkpt lat="43.97018" lon="5.08729">
        <ele>242.87</ele>
        <time>2015-11-23T10:48:32Z</time>
      </trkpt>
      <trkpt lat="43.97028" lon="5.08731">
        <ele>240.95</ele>
        <time>2015-11-23T10:48:46Z</time>
      </trkpt>
      <trkpt lat="43.9704" lon="5.08738">
        <ele>239.99</ele>
        <time>2015-11-23T10:49:00Z</time>
      </trkpt>
      <trkpt lat="43.9705" lon="5.08733">
        <ele>237.58</ele>
        <time>2015-11-23T10:49:15Z</time>
      </trkpt>
      <trkpt lat="43.97053" lon="5.08734">
        <ele>236.62</ele>
        <time>2015-11-23T10:49:21Z</time>
      </trkpt>
      <trkpt lat="43.97061" lon="5.08736">
        <ele>235.66</ele>
        <time>2015-11-23T10:49:29Z</time>
      </trkpt>
      <trkpt lat="43.97063" lon="5.08737">
        <ele>235.66</ele>
        <time>2015-11-23T10:49:31Z</time>
      </trkpt>
      <trkpt lat="43.97075" lon="5.08734">
        <ele>234.7</ele>
        <time>2015-11-23T10:49:46Z</time>
      </trkpt>
      <trkpt lat="43.97086" lon="5.08715">
        <ele>234.22</ele>
        <time>2015-11-23T10:50:01Z</time>
      </trkpt>
      <trkpt lat="43.97089" lon="5.0871">
        <ele>234.22</ele>
        <time>2015-11-23T10:50:04Z</time>
      </trkpt>
      <trkpt lat="43.97092" lon="5.08703">
        <ele>233.74</ele>
        <time>2015-11-23T10:50:09Z</time>
      </trkpt>
      <trkpt lat="43.97096" lon="5.0868">
        <ele>233.74</ele>
        <time>2015-11-23T10:50:24Z</time>
      </trkpt>
      <trkpt lat="43.97095" lon="5.08674">
        <ele>233.74</ele>
        <time>2015-11-23T10:50:31Z</time>
      </trkpt>
      <trkpt lat="43.97095" lon="5.08665">
        <ele>234.7</ele>
        <time>2015-11-23T10:50:36Z</time>
      </trkpt>
      <trkpt lat="43.97106" lon="5.08667">
        <ele>235.18</ele>
        <time>2015-11-23T10:50:49Z</time>
      </trkpt>
      <trkpt lat="43.97117" lon="5.08672">
        <ele>236.14</ele>
        <time>2015-11-23T10:51:02Z</time>
      </trkpt>
      <trkpt lat="43.97125" lon="5.08674">
        <ele>236.14</ele>
        <time>2015-11-23T10:51:10Z</time>
      </trkpt>
      <trkpt lat="43.97138" lon="5.08678">
        <ele>237.1</ele>
        <time>2015-11-23T10:51:21Z</time>
      </trkpt>
      <trkpt lat="43.97143" lon="5.08681">
        <ele>237.58</ele>
        <time>2015-11-23T10:51:27Z</time>
      </trkpt>
      <trkpt lat="43.97153" lon="5.08685">
        <ele>237.58</ele>
        <time>2015-11-23T10:51:37Z</time>
      </trkpt>
      <trkpt lat="43.97168" lon="5.0869">
        <ele>239.51</ele>
        <time>2015-11-23T10:51:53Z</time>
      </trkpt>
      <trkpt lat="43.97179" lon="5.08695">
        <ele>240.95</ele>
        <time>2015-11-23T10:52:06Z</time>
      </trkpt>
      <trkpt lat="43.97188" lon="5.08701">
        <ele>242.39</ele>
        <time>2015-11-23T10:52:18Z</time>
      </trkpt>
      <trkpt lat="43.97195" lon="5.08705">
        <ele>243.83</ele>
        <time>2015-11-23T10:52:30Z</time>
      </trkpt>
      <trkpt lat="43.97203" lon="5.08711">
        <ele>243.83</ele>
        <time>2015-11-23T10:52:40Z</time>
      </trkpt>
      <trkpt lat="43.97209" lon="5.08714">
        <ele>244.79</ele>
        <time>2015-11-23T10:52:53Z</time>
      </trkpt>
      <trkpt lat="43.97208" lon="5.08715">
        <ele>244.79</ele>
        <time>2015-11-23T10:53:21Z</time>
      </trkpt>
      <trkpt lat="43.97209" lon="5.08715">
        <ele>244.79</ele>
        <time>2015-11-23T10:53:42Z</time>
      </trkpt>
      <trkpt lat="43.97216" lon="5.08719">
        <ele>244.31</ele>
        <time>2015-11-23T10:53:53Z</time>
      </trkpt>
      <trkpt lat="43.97233" lon="5.08721">
        <ele>245.27</ele>
        <time>2015-11-23T10:54:06Z</time>
      </trkpt>
      <trkpt lat="43.97249" lon="5.08723">
        <ele>246.23</ele>
        <time>2015-11-23T10:54:20Z</time>
      </trkpt>
      <trkpt lat="43.97264" lon="5.08728">
        <ele>246.72</ele>
        <time>2015-11-23T10:54:32Z</time>
      </trkpt>
      <trkpt lat="43.97282" lon="5.08732">
        <ele>248.16</ele>
        <time>2015-11-23T10:54:48Z</time>
      </trkpt>
      <trkpt lat="43.97295" lon="5.08736">
        <ele>248.16</ele>
        <time>2015-11-23T10:55:00Z</time>
      </trkpt>
      <trkpt lat="43.97297" lon="5.08737">
        <ele>248.16</ele>
        <time>2015-11-23T10:55:02Z</time>
      </trkpt>
      <trkpt lat="43.9732" lon="5.08747">
        <ele>248.16</ele>
        <time>2015-11-23T10:55:22Z</time>
      </trkpt>
      <trkpt lat="43.97337" lon="5.08762">
        <ele>249.12</ele>
        <time>2015-11-23T10:55:38Z</time>
      </trkpt>
      <trkpt lat="43.97351" lon="5.08772">
        <ele>249.6</ele>
        <time>2015-11-23T10:55:53Z</time>
      </trkpt>
      <trkpt lat="43.97366" lon="5.08781">
        <ele>250.56</ele>
        <time>2015-11-23T10:56:07Z</time>
      </trkpt>
      <trkpt lat="43.97375" lon="5.08805">
        <ele>251.52</ele>
        <time>2015-11-23T10:56:25Z</time>
      </trkpt>
      <trkpt lat="43.97374" lon="5.08816">
        <ele>252</ele>
        <time>2015-11-23T10:56:33Z</time>
      </trkpt>
      <trkpt lat="43.97371" lon="5.08821">
        <ele>252</ele>
        <time>2015-11-23T10:56:37Z</time>
      </trkpt>
      <trkpt lat="43.97367" lon="5.08831">
        <ele>252.48</ele>
        <time>2015-11-23T10:56:43Z</time>
      </trkpt>
      <trkpt lat="43.97357" lon="5.08855">
        <ele>253.44</ele>
        <time>2015-11-23T10:57:00Z</time>
      </trkpt>
      <trkpt lat="43.97351" lon="5.08876">
        <ele>256.33</ele>
        <time>2015-11-23T10:57:16Z</time>
      </trkpt>
      <trkpt lat="43.97349" lon="5.08898">
        <ele>257.77</ele>
        <time>2015-11-23T10:57:32Z</time>
      </trkpt>
      <trkpt lat="43.97348" lon="5.08908">
        <ele>258.73</ele>
        <time>2015-11-23T10:57:40Z</time>
      </trkpt>
      <trkpt lat="43.97346" lon="5.08932">
        <ele>259.69</ele>
        <time>2015-11-23T10:57:55Z</time>
      </trkpt>
      <trkpt lat="43.97344" lon="5.08952">
        <ele>261.14</ele>
        <time>2015-11-23T10:58:08Z</time>
      </trkpt>
      <trkpt lat="43.97344" lon="5.08974">
        <ele>262.58</ele>
        <time>2015-11-23T10:58:23Z</time>
      </trkpt>
      <trkpt lat="43.97344" lon="5.08998">
        <ele>263.54</ele>
        <time>2015-11-23T10:58:38Z</time>
      </trkpt>
      <trkpt lat="43.97341" lon="5.0902">
        <ele>264.98</ele>
        <time>2015-11-23T10:58:52Z</time>
      </trkpt>
      <trkpt lat="43.97342" lon="5.09037">
        <ele>266.9</ele>
        <time>2015-11-23T10:59:07Z</time>
      </trkpt>
      <trkpt lat="43.97345" lon="5.0905">
        <ele>268.35</ele>
        <time>2015-11-23T10:59:20Z</time>
      </trkpt>
      <trkpt lat="43.97345" lon="5.09055">
        <ele>268.35</ele>
        <time>2015-11-23T10:59:34Z</time>
      </trkpt>
      <trkpt lat="43.97347" lon="5.09055">
        <ele>268.35</ele>
        <time>2015-11-23T10:59:51Z</time>
      </trkpt>
      <trkpt lat="43.97347" lon="5.09057">
        <ele>268.35</ele>
        <time>2015-11-23T11:00:12Z</time>
      </trkpt>
      <trkpt lat="43.97345" lon="5.09055">
        <ele>268.83</ele>
        <time>2015-11-23T11:00:34Z</time>
      </trkpt>
      <trkpt lat="43.97345" lon="5.09056">
        <ele>268.35</ele>
        <time>2015-11-23T11:00:55Z</time>
      </trkpt>
      <trkpt lat="43.97344" lon="5.09055">
        <ele>268.35</ele>
        <time>2015-11-23T11:01:16Z</time>
      </trkpt>
      <trkpt lat="43.97345" lon="5.09057">
        <ele>268.35</ele>
        <time>2015-11-23T11:01:34Z</time>
      </trkpt>
      <trkpt lat="43.97347" lon="5.09062">
        <ele>268.83</ele>
        <time>2015-11-23T11:01:52Z</time>
      </trkpt>
      <trkpt lat="43.97349" lon="5.09065">
        <ele>268.83</ele>
        <time>2015-11-23T11:02:15Z</time>
      </trkpt>
      <trkpt lat="43.9735" lon="5.09066">
        <ele>269.31</ele>
        <time>2015-11-23T11:02:31Z</time>
      </trkpt>
      <trkpt lat="43.97352" lon="5.0907">
        <ele>269.31</ele>
        <time>2015-11-23T11:02:56Z</time>
      </trkpt>
      <trkpt lat="43.97358" lon="5.09074">
        <ele>268.83</ele>
        <time>2015-11-23T11:03:11Z</time>
      </trkpt>
      <trkpt lat="43.97362" lon="5.09071">
        <ele>268.35</ele>
        <time>2015-11-23T11:03:16Z</time>
      </trkpt>
      <trkpt lat="43.97377" lon="5.09064">
        <ele>265.94</ele>
        <time>2015-11-23T11:03:32Z</time>
      </trkpt>
      <trkpt lat="43.97391" lon="5.09063">
        <ele>264.98</ele>
        <time>2015-11-23T11:03:49Z</time>
      </trkpt>
      <trkpt lat="43.97394" lon="5.09064">
        <ele>264.98</ele>
        <time>2015-11-23T11:04:02Z</time>
      </trkpt>
      <trkpt lat="43.9739" lon="5.09064">
        <ele>264.98</ele>
        <time>2015-11-23T11:04:17Z</time>
      </trkpt>
      <trkpt lat="43.97391" lon="5.0906">
        <ele>264.5</ele>
        <time>2015-11-23T11:04:26Z</time>
      </trkpt>
      <trkpt lat="43.97391" lon="5.0906">
        <ele>268.35</ele>
        <time>2015-11-23T11:42:56Z</time>
      </trkpt>
      <trkpt lat="43.97394" lon="5.09077">
        <ele>268.35</ele>
        <time>2015-11-23T11:42:57Z</time>
      </trkpt>
      <trkpt lat="43.97385" lon="5.09059">
        <ele>268.83</ele>
        <time>2015-11-23T11:43:17Z</time>
      </trkpt>
      <trkpt lat="43.97386" lon="5.0906">
        <ele>268.83</ele>
        <time>2015-11-23T11:43:37Z</time>
      </trkpt>
      <trkpt lat="43.97387" lon="5.09058">
        <ele>268.83</ele>
        <time>2015-11-23T11:44:00Z</time>
      </trkpt>
      <trkpt lat="43.97389" lon="5.09061">
        <ele>267.86</ele>
        <time>2015-11-23T11:44:15Z</time>
      </trkpt>
      <trkpt lat="43.97389" lon="5.09063">
        <ele>268.83</ele>
        <time>2015-11-23T11:44:33Z</time>
      </trkpt>
      <trkpt lat="43.97387" lon="5.09064">
        <ele>268.83</ele>
        <time>2015-11-23T11:44:48Z</time>
      </trkpt>
      <trkpt lat="43.97381" lon="5.09064">
        <ele>269.31</ele>
        <time>2015-11-23T11:45:02Z</time>
      </trkpt>
      <trkpt lat="43.97376" lon="5.09064">
        <ele>270.27</ele>
        <time>2015-11-23T11:45:16Z</time>
      </trkpt>
      <trkpt lat="43.97378" lon="5.09065">
        <ele>269.31</ele>
        <time>2015-11-23T11:45:31Z</time>
      </trkpt>
      <trkpt lat="43.97388" lon="5.09062">
        <ele>268.83</ele>
        <time>2015-11-23T11:45:47Z</time>
      </trkpt>
      <trkpt lat="43.97388" lon="5.09064">
        <ele>268.35</ele>
        <time>2015-11-23T11:45:57Z</time>
      </trkpt>
      <trkpt lat="43.97388" lon="5.09066">
        <ele>268.35</ele>
        <time>2015-11-23T11:46:14Z</time>
      </trkpt>
      <trkpt lat="43.97386" lon="5.09065">
        <ele>268.35</ele>
        <time>2015-11-23T11:46:30Z</time>
      </trkpt>
      <trkpt lat="43.97384" lon="5.09065">
        <ele>268.83</ele>
        <time>2015-11-23T11:46:44Z</time>
      </trkpt>
      <trkpt lat="43.97386" lon="5.09063">
        <ele>268.83</ele>
        <time>2015-11-23T11:47:02Z</time>
      </trkpt>
      <trkpt lat="43.97389" lon="5.09064">
        <ele>268.35</ele>
        <time>2015-11-23T11:47:19Z</time>
      </trkpt>
      <trkpt lat="43.97391" lon="5.09063">
        <ele>267.86</ele>
        <time>2015-11-23T11:47:30Z</time>
      </trkpt>
      <trkpt lat="43.97401" lon="5.09059">
        <ele>266.9</ele>
        <time>2015-11-23T11:47:44Z</time>
      </trkpt>
      <trkpt lat="43.97415" lon="5.0905">
        <ele>264.02</ele>
        <time>2015-11-23T11:48:01Z</time>
      </trkpt>
      <trkpt lat="43.97421" lon="5.09047">
        <ele>262.58</ele>
        <time>2015-11-23T11:48:10Z</time>
      </trkpt>
      <trkpt lat="43.97429" lon="5.09045">
        <ele>261.62</ele>
        <time>2015-11-23T11:48:21Z</time>
      </trkpt>
      <trkpt lat="43.97447" lon="5.09047">
        <ele>259.69</ele>
        <time>2015-11-23T11:48:38Z</time>
      </trkpt>
      <trkpt lat="43.97467" lon="5.0905">
        <ele>257.77</ele>
        <time>2015-11-23T11:48:55Z</time>
      </trkpt>
      <trkpt lat="43.97475" lon="5.09051">
        <ele>257.77</ele>
        <time>2015-11-23T11:49:06Z</time>
      </trkpt>
      <trkpt lat="43.97482" lon="5.09055">
        <ele>256.81</ele>
        <time>2015-11-23T11:49:14Z</time>
      </trkpt>
      <trkpt lat="43.97499" lon="5.09063">
        <ele>256.33</ele>
        <time>2015-11-23T11:49:30Z</time>
      </trkpt>
      <trkpt lat="43.97512" lon="5.09068">
        <ele>255.37</ele>
        <time>2015-11-23T11:49:43Z</time>
      </trkpt>
      <trkpt lat="43.97524" lon="5.09076">
        <ele>254.41</ele>
        <time>2015-11-23T11:49:56Z</time>
      </trkpt>
      <trkpt lat="43.9754" lon="5.09089">
        <ele>252.96</ele>
        <time>2015-11-23T11:50:12Z</time>
      </trkpt>
      <trkpt lat="43.97555" lon="5.09111">
        <ele>251.52</ele>
        <time>2015-11-23T11:50:30Z</time>
      </trkpt>
      <trkpt lat="43.97559" lon="5.09118">
        <ele>251.04</ele>
        <time>2015-11-23T11:50:36Z</time>
      </trkpt>
      <trkpt lat="43.97564" lon="5.09124">
        <ele>250.56</ele>
        <time>2015-11-23T11:50:43Z</time>
      </trkpt>
      <trkpt lat="43.9758" lon="5.09127">
        <ele>249.6</ele>
        <time>2015-11-23T11:51:00Z</time>
      </trkpt>
      <trkpt lat="43.97589" lon="5.09122">
        <ele>250.08</ele>
        <time>2015-11-23T11:51:13Z</time>
      </trkpt>
      <trkpt lat="43.97587" lon="5.09123">
        <ele>249.6</ele>
        <time>2015-11-23T11:51:22Z</time>
      </trkpt>
      <trkpt lat="43.97593" lon="5.0911">
        <ele>248.16</ele>
        <time>2015-11-23T11:51:35Z</time>
      </trkpt>
      <trkpt lat="43.97594" lon="5.09099">
        <ele>247.2</ele>
        <time>2015-11-23T11:51:44Z</time>
      </trkpt>
      <trkpt lat="43.97598" lon="5.09081">
        <ele>245.75</ele>
        <time>2015-11-23T11:52:01Z</time>
      </trkpt>
      <trkpt lat="43.97599" lon="5.09075">
        <ele>245.27</ele>
        <time>2015-11-23T11:52:05Z</time>
      </trkpt>
      <trkpt lat="43.97603" lon="5.09053">
        <ele>242.39</ele>
        <time>2015-11-23T11:52:22Z</time>
      </trkpt>
      <trkpt lat="43.9761" lon="5.09034">
        <ele>240.47</ele>
        <time>2015-11-23T11:52:38Z</time>
      </trkpt>
      <trkpt lat="43.97614" lon="5.09018">
        <ele>239.02</ele>
        <time>2015-11-23T11:52:53Z</time>
      </trkpt>
      <trkpt lat="43.97615" lon="5.08998">
        <ele>238.06</ele>
        <time>2015-11-23T11:53:08Z</time>
      </trkpt>
      <trkpt lat="43.97621" lon="5.08979">
        <ele>236.62</ele>
        <time>2015-11-23T11:53:24Z</time>
      </trkpt>
      <trkpt lat="43.97622" lon="5.08973">
        <ele>236.62</ele>
        <time>2015-11-23T11:53:30Z</time>
      </trkpt>
      <trkpt lat="43.97624" lon="5.08966">
        <ele>235.66</ele>
        <time>2015-11-23T11:53:36Z</time>
      </trkpt>
      <trkpt lat="43.97636" lon="5.08951">
        <ele>233.26</ele>
        <time>2015-11-23T11:53:52Z</time>
      </trkpt>
      <trkpt lat="43.97645" lon="5.08947">
        <ele>232.3</ele>
        <time>2015-11-23T11:54:02Z</time>
      </trkpt>
      <trkpt lat="43.9766" lon="5.08944">
        <ele>230.85</ele>
        <time>2015-11-23T11:54:17Z</time>
      </trkpt>
      <trkpt lat="43.97674" lon="5.08929">
        <ele>230.85</ele>
        <time>2015-11-23T11:54:34Z</time>
      </trkpt>
      <trkpt lat="43.97675" lon="5.08927">
        <ele>230.85</ele>
        <time>2015-11-23T11:54:35Z</time>
      </trkpt>
      <trkpt lat="43.97669" lon="5.08897">
        <ele>230.85</ele>
        <time>2015-11-23T11:54:52Z</time>
      </trkpt>
      <trkpt lat="43.97667" lon="5.08872">
        <ele>231.33</ele>
        <time>2015-11-23T11:55:08Z</time>
      </trkpt>
      <trkpt lat="43.97674" lon="5.08854">
        <ele>232.3</ele>
        <time>2015-11-23T11:55:25Z</time>
      </trkpt>
      <trkpt lat="43.97676" lon="5.08851">
        <ele>232.3</ele>
        <time>2015-11-23T11:55:39Z</time>
      </trkpt>
      <trkpt lat="43.97677" lon="5.0885">
        <ele>232.3</ele>
        <time>2015-11-23T11:55:53Z</time>
      </trkpt>
      <trkpt lat="43.97678" lon="5.0885">
        <ele>232.3</ele>
        <time>2015-11-23T11:56:16Z</time>
      </trkpt>
      <trkpt lat="43.97672" lon="5.08851">
        <ele>231.81</ele>
        <time>2015-11-23T11:56:33Z</time>
      </trkpt>
      <trkpt lat="43.97668" lon="5.08859">
        <ele>231.81</ele>
        <time>2015-11-23T11:56:46Z</time>
      </trkpt>
      <trkpt lat="43.97668" lon="5.08859">
        <ele>231.81</ele>
        <time>2015-11-23T11:57:04Z</time>
      </trkpt>
      <trkpt lat="43.97667" lon="5.08859">
        <ele>231.33</ele>
        <time>2015-11-23T11:57:28Z</time>
      </trkpt>
      <trkpt lat="43.97674" lon="5.08851">
        <ele>232.3</ele>
        <time>2015-11-23T11:57:47Z</time>
      </trkpt>
      <trkpt lat="43.97684" lon="5.0884">
        <ele>230.37</ele>
        <time>2015-11-23T11:58:02Z</time>
      </trkpt>
      <trkpt lat="43.97692" lon="5.08828">
        <ele>228.93</ele>
        <time>2015-11-23T11:58:17Z</time>
      </trkpt>
      <trkpt lat="43.97701" lon="5.08815">
        <ele>227.01</ele>
        <time>2015-11-23T11:58:32Z</time>
      </trkpt>
      <trkpt lat="43.97709" lon="5.08802">
        <ele>225.09</ele>
        <time>2015-11-23T11:58:46Z</time>
      </trkpt>
      <trkpt lat="43.97716" lon="5.08788">
        <ele>223.64</ele>
        <time>2015-11-23T11:58:59Z</time>
      </trkpt>
      <trkpt lat="43.97724" lon="5.08773">
        <ele>222.2</ele>
        <time>2015-11-23T11:59:12Z</time>
      </trkpt>
      <trkpt lat="43.97727" lon="5.08766">
        <ele>221.24</ele>
        <time>2015-11-23T11:59:18Z</time>
      </trkpt>
      <trkpt lat="43.97734" lon="5.08744">
        <ele>218.36</ele>
        <time>2015-11-23T11:59:34Z</time>
      </trkpt>
      <trkpt lat="43.97734" lon="5.08729">
        <ele>217.4</ele>
        <time>2015-11-23T11:59:44Z</time>
      </trkpt>
      <trkpt lat="43.97732" lon="5.08727">
        <ele>217.4</ele>
        <time>2015-11-23T11:59:46Z</time>
      </trkpt>
      <trkpt lat="43.97734" lon="5.08704">
        <ele>214.51</ele>
        <time>2015-11-23T12:00:02Z</time>
      </trkpt>
      <trkpt lat="43.9773" lon="5.08687">
        <ele>213.07</ele>
        <time>2015-11-23T12:00:14Z</time>
      </trkpt>
      <trkpt lat="43.97727" lon="5.0868">
        <ele>211.63</ele>
        <time>2015-11-23T12:00:26Z</time>
      </trkpt>
      <trkpt lat="43.97732" lon="5.08689">
        <ele>213.07</ele>
        <time>2015-11-23T12:00:37Z</time>
      </trkpt>
      <trkpt lat="43.97739" lon="5.08676">
        <ele>214.99</ele>
        <time>2015-11-23T12:00:49Z</time>
      </trkpt>
      <trkpt lat="43.97752" lon="5.08666">
        <ele>216.43</ele>
        <time>2015-11-23T12:01:05Z</time>
      </trkpt>
      <trkpt lat="43.97763" lon="5.08659">
        <ele>217.88</ele>
        <time>2015-11-23T12:01:20Z</time>
      </trkpt>
      <trkpt lat="43.97774" lon="5.08657">
        <ele>219.32</ele>
        <time>2015-11-23T12:01:34Z</time>
      </trkpt>
      <trkpt lat="43.97784" lon="5.08654">
        <ele>217.88</ele>
        <time>2015-11-23T12:01:45Z</time>
      </trkpt>
      <trkpt lat="43.97796" lon="5.0865">
        <ele>214.99</ele>
        <time>2015-11-23T12:02:01Z</time>
      </trkpt>
      <trkpt lat="43.97804" lon="5.08643">
        <ele>212.11</ele>
        <time>2015-11-23T12:02:17Z</time>
      </trkpt>
      <trkpt lat="43.97814" lon="5.08638">
        <ele>208.74</ele>
        <time>2015-11-23T12:02:34Z</time>
      </trkpt>
      <trkpt lat="43.97825" lon="5.08649">
        <ele>207.78</ele>
        <time>2015-11-23T12:02:50Z</time>
      </trkpt>
      <trkpt lat="43.97837" lon="5.08656">
        <ele>204.9</ele>
        <time>2015-11-23T12:03:04Z</time>
      </trkpt>
      <trkpt lat="43.97851" lon="5.08658">
        <ele>201.53</ele>
        <time>2015-11-23T12:03:19Z</time>
      </trkpt>
      <trkpt lat="43.97858" lon="5.08645">
        <ele>198.65</ele>
        <time>2015-11-23T12:03:33Z</time>
      </trkpt>
      <trkpt lat="43.97858" lon="5.08628">
        <ele>196.73</ele>
        <time>2015-11-23T12:03:47Z</time>
      </trkpt>
      <trkpt lat="43.97858" lon="5.08613">
        <ele>194.32</ele>
        <time>2015-11-23T12:04:04Z</time>
      </trkpt>
      <trkpt lat="43.97854" lon="5.08596">
        <ele>191.92</ele>
        <time>2015-11-23T12:04:21Z</time>
      </trkpt>
      <trkpt lat="43.97855" lon="5.08595">
        <ele>191.92</ele>
        <time>2015-11-23T12:04:22Z</time>
      </trkpt>
      <trkpt lat="43.97854" lon="5.08582">
        <ele>190.48</ele>
        <time>2015-11-23T12:04:36Z</time>
      </trkpt>
      <trkpt lat="43.9786" lon="5.08577">
        <ele>189.52</ele>
        <time>2015-11-23T12:04:50Z</time>
      </trkpt>
      <trkpt lat="43.97865" lon="5.08566">
        <ele>187.59</ele>
        <time>2015-11-23T12:05:05Z</time>
      </trkpt>
      <trkpt lat="43.97861" lon="5.08574">
        <ele>189.04</ele>
        <time>2015-11-23T12:05:19Z</time>
      </trkpt>
      <trkpt lat="43.97854" lon="5.08579">
        <ele>190.48</ele>
        <time>2015-11-23T12:05:32Z</time>
      </trkpt>
      <trkpt lat="43.97854" lon="5.08587">
        <ele>190.96</ele>
        <time>2015-11-23T12:05:45Z</time>
      </trkpt>
      <trkpt lat="43.97858" lon="5.08588">
        <ele>190.96</ele>
        <time>2015-11-23T12:05:58Z</time>
      </trkpt>
      <trkpt lat="43.9786" lon="5.08589">
        <ele>190.96</ele>
        <time>2015-11-23T12:06:02Z</time>
      </trkpt>
      <trkpt lat="43.97865" lon="5.08596">
        <ele>190.48</ele>
        <time>2015-11-23T12:06:08Z</time>
      </trkpt>
      <trkpt lat="43.97876" lon="5.08603">
        <ele>189.52</ele>
        <time>2015-11-23T12:06:22Z</time>
      </trkpt>
      <trkpt lat="43.97883" lon="5.08615">
        <ele>189.52</ele>
        <time>2015-11-23T12:06:35Z</time>
      </trkpt>
      <trkpt lat="43.97898" lon="5.0863">
        <ele>189.04</ele>
        <time>2015-11-23T12:06:52Z</time>
      </trkpt>
      <trkpt lat="43.97899" lon="5.08632">
        <ele>189.52</ele>
        <time>2015-11-23T12:06:54Z</time>
      </trkpt>
      <trkpt lat="43.97903" lon="5.08634">
        <ele>189.52</ele>
        <time>2015-11-23T12:06:58Z</time>
      </trkpt>
      <trkpt lat="43.97911" lon="5.08643">
        <ele>190</ele>
        <time>2015-11-23T12:07:12Z</time>
      </trkpt>
      <trkpt lat="43.97922" lon="5.08653">
        <ele>191.92</ele>
        <time>2015-11-23T12:07:29Z</time>
      </trkpt>
      <trkpt lat="43.97931" lon="5.08657">
        <ele>190.96</ele>
        <time>2015-11-23T12:07:38Z</time>
      </trkpt>
      <trkpt lat="43.97937" lon="5.08666">
        <ele>191.44</ele>
        <time>2015-11-23T12:07:51Z</time>
      </trkpt>
      <trkpt lat="43.97941" lon="5.08675">
        <ele>189.52</ele>
        <time>2015-11-23T12:08:06Z</time>
      </trkpt>
      <trkpt lat="43.97945" lon="5.0868">
        <ele>190.48</ele>
        <time>2015-11-23T12:08:14Z</time>
      </trkpt>
      <trkpt lat="43.97949" lon="5.08683">
        <ele>190.48</ele>
        <time>2015-11-23T12:08:18Z</time>
      </trkpt>
      <trkpt lat="43.97952" lon="5.08692">
        <ele>191.44</ele>
        <time>2015-11-23T12:08:24Z</time>
      </trkpt>
      <trkpt lat="43.97967" lon="5.08702">
        <ele>190.96</ele>
        <time>2015-11-23T12:08:40Z</time>
      </trkpt>
      <trkpt lat="43.97979" lon="5.08703">
        <ele>190.48</ele>
        <time>2015-11-23T12:08:49Z</time>
      </trkpt>
      <trkpt lat="43.97994" lon="5.08705">
        <ele>190.96</ele>
        <time>2015-11-23T12:09:03Z</time>
      </trkpt>
      <trkpt lat="43.98012" lon="5.08706">
        <ele>191.92</ele>
        <time>2015-11-23T12:09:21Z</time>
      </trkpt>
      <trkpt lat="43.98026" lon="5.08703">
        <ele>190.96</ele>
        <time>2015-11-23T12:09:35Z</time>
      </trkpt>
      <trkpt lat="43.98034" lon="5.08701">
        <ele>190.48</ele>
        <time>2015-11-23T12:09:43Z</time>
      </trkpt>
      <trkpt lat="43.98044" lon="5.08696">
        <ele>190.48</ele>
        <time>2015-11-23T12:09:54Z</time>
      </trkpt>
      <trkpt lat="43.98057" lon="5.08693">
        <ele>190.48</ele>
        <time>2015-11-23T12:10:10Z</time>
      </trkpt>
      <trkpt lat="43.9807" lon="5.08699">
        <ele>190</ele>
        <time>2015-11-23T12:10:23Z</time>
      </trkpt>
      <trkpt lat="43.98081" lon="5.08708">
        <ele>190</ele>
        <time>2015-11-23T12:10:39Z</time>
      </trkpt>
      <trkpt lat="43.98089" lon="5.08726">
        <ele>192.4</ele>
        <time>2015-11-23T12:10:56Z</time>
      </trkpt>
      <trkpt lat="43.98099" lon="5.08741">
        <ele>193.84</ele>
        <time>2015-11-23T12:11:09Z</time>
      </trkpt>
      <trkpt lat="43.98107" lon="5.08754">
        <ele>194.32</ele>
        <time>2015-11-23T12:11:22Z</time>
      </trkpt>
      <trkpt lat="43.9811" lon="5.08761">
        <ele>194.8</ele>
        <time>2015-11-23T12:11:28Z</time>
      </trkpt>
      <trkpt lat="43.9812" lon="5.08783">
        <ele>195.28</ele>
        <time>2015-11-23T12:11:46Z</time>
      </trkpt>
      <trkpt lat="43.9813" lon="5.08802">
        <ele>195.77</ele>
        <time>2015-11-23T12:12:03Z</time>
      </trkpt>
      <trkpt lat="43.98138" lon="5.08814">
        <ele>195.77</ele>
        <time>2015-11-23T12:12:16Z</time>
      </trkpt>
      <trkpt lat="43.98147" lon="5.08834">
        <ele>196.25</ele>
        <time>2015-11-23T12:12:30Z</time>
      </trkpt>
      <trkpt lat="43.98147" lon="5.08856">
        <ele>196.73</ele>
        <time>2015-11-23T12:12:45Z</time>
      </trkpt>
      <trkpt lat="43.98145" lon="5.08873">
        <ele>197.69</ele>
        <time>2015-11-23T12:12:57Z</time>
      </trkpt>
      <trkpt lat="43.98139" lon="5.0889">
        <ele>198.17</ele>
        <time>2015-11-23T12:13:09Z</time>
      </trkpt>
      <trkpt lat="43.98136" lon="5.08898">
        <ele>198.65</ele>
        <time>2015-11-23T12:13:16Z</time>
      </trkpt>
      <trkpt lat="43.98132" lon="5.08916">
        <ele>199.61</ele>
        <time>2015-11-23T12:13:29Z</time>
      </trkpt>
      <trkpt lat="43.98128" lon="5.08932">
        <ele>200.57</ele>
        <time>2015-11-23T12:13:43Z</time>
      </trkpt>
      <trkpt lat="43.98124" lon="5.08936">
        <ele>200.57</ele>
        <time>2015-11-23T12:13:59Z</time>
      </trkpt>
      <trkpt lat="43.98124" lon="5.08936">
        <ele>200.57</ele>
        <time>2015-11-23T12:14:21Z</time>
      </trkpt>
      <trkpt lat="43.98124" lon="5.08935">
        <ele>200.57</ele>
        <time>2015-11-23T12:14:43Z</time>
      </trkpt>
      <trkpt lat="43.98123" lon="5.08935">
        <ele>200.57</ele>
        <time>2015-11-23T12:15:07Z</time>
      </trkpt>
      <trkpt lat="43.9812" lon="5.08947">
        <ele>201.53</ele>
        <time>2015-11-23T12:15:20Z</time>
      </trkpt>
      <trkpt lat="43.98115" lon="5.08959">
        <ele>202.49</ele>
        <time>2015-11-23T12:15:30Z</time>
      </trkpt>
      <trkpt lat="43.98113" lon="5.08983">
        <ele>203.46</ele>
        <time>2015-11-23T12:15:44Z</time>
      </trkpt>
      <trkpt lat="43.98113" lon="5.08985">
        <ele>203.46</ele>
        <time>2015-11-23T12:15:46Z</time>
      </trkpt>
      <trkpt lat="43.9811" lon="5.08998">
        <ele>203.46</ele>
        <time>2015-11-23T12:15:58Z</time>
      </trkpt>
      <trkpt lat="43.98106" lon="5.09017">
        <ele>203.46</ele>
        <time>2015-11-23T12:16:12Z</time>
      </trkpt>
      <trkpt lat="43.98107" lon="5.09026">
        <ele>202.98</ele>
        <time>2015-11-23T12:16:26Z</time>
      </trkpt>
      <trkpt lat="43.98113" lon="5.09011">
        <ele>200.57</ele>
        <time>2015-11-23T12:16:43Z</time>
      </trkpt>
      <trkpt lat="43.98116" lon="5.09006">
        <ele>199.61</ele>
        <time>2015-11-23T12:16:48Z</time>
      </trkpt>
      <trkpt lat="43.98128" lon="5.08989">
        <ele>198.65</ele>
        <time>2015-11-23T12:17:05Z</time>
      </trkpt>
      <trkpt lat="43.98131" lon="5.08979">
        <ele>197.69</ele>
        <time>2015-11-23T12:17:11Z</time>
      </trkpt>
      <trkpt lat="43.98133" lon="5.08967">
        <ele>196.73</ele>
        <time>2015-11-23T12:17:20Z</time>
      </trkpt>
      <trkpt lat="43.98141" lon="5.0895">
        <ele>195.28</ele>
        <time>2015-11-23T12:17:35Z</time>
      </trkpt>
      <trkpt lat="43.98151" lon="5.08928">
        <ele>193.36</ele>
        <time>2015-11-23T12:17:53Z</time>
      </trkpt>
      <trkpt lat="43.98165" lon="5.08911">
        <ele>192.4</ele>
        <time>2015-11-23T12:18:11Z</time>
      </trkpt>
      <trkpt lat="43.98179" lon="5.089">
        <ele>190.96</ele>
        <time>2015-11-23T12:18:29Z</time>
      </trkpt>
      <trkpt lat="43.982" lon="5.08895">
        <ele>188.56</ele>
        <time>2015-11-23T12:18:47Z</time>
      </trkpt>
      <trkpt lat="43.98216" lon="5.08891">
        <ele>188.56</ele>
        <time>2015-11-23T12:19:02Z</time>
      </trkpt>
      <trkpt lat="43.98232" lon="5.08883">
        <ele>189.04</ele>
        <time>2015-11-23T12:19:18Z</time>
      </trkpt>
      <trkpt lat="43.98241" lon="5.08878">
        <ele>188.56</ele>
        <time>2015-11-23T12:19:31Z</time>
      </trkpt>
      <trkpt lat="43.98247" lon="5.08873">
        <ele>188.08</ele>
        <time>2015-11-23T12:19:45Z</time>
      </trkpt>
      <trkpt lat="43.98241" lon="5.08877">
        <ele>188.08</ele>
        <time>2015-11-23T12:19:55Z</time>
      </trkpt>
      <trkpt lat="43.98231" lon="5.08872">
        <ele>187.59</ele>
        <time>2015-11-23T12:20:07Z</time>
      </trkpt>
      <trkpt lat="43.98232" lon="5.08863">
        <ele>186.15</ele>
        <time>2015-11-23T12:20:21Z</time>
      </trkpt>
      <trkpt lat="43.98231" lon="5.08859">
        <ele>185.67</ele>
        <time>2015-11-23T12:20:24Z</time>
      </trkpt>
      <trkpt lat="43.98231" lon="5.0885">
        <ele>184.71</ele>
        <time>2015-11-23T12:20:30Z</time>
      </trkpt>
      <trkpt lat="43.98232" lon="5.08844">
        <ele>184.71</ele>
        <time>2015-11-23T12:20:35Z</time>
      </trkpt>
      <trkpt lat="43.98235" lon="5.0884">
        <ele>184.23</ele>
        <time>2015-11-23T12:20:38Z</time>
      </trkpt>
      <trkpt lat="43.98239" lon="5.08837">
        <ele>184.23</ele>
        <time>2015-11-23T12:20:43Z</time>
      </trkpt>
      <trkpt lat="43.98244" lon="5.08832">
        <ele>183.75</ele>
        <time>2015-11-23T12:20:48Z</time>
      </trkpt>
      <trkpt lat="43.98246" lon="5.08829">
        <ele>183.75</ele>
        <time>2015-11-23T12:20:51Z</time>
      </trkpt>
      <trkpt lat="43.98255" lon="5.08815">
        <ele>183.27</ele>
        <time>2015-11-23T12:21:06Z</time>
      </trkpt>
      <trkpt lat="43.98269" lon="5.08806">
        <ele>183.27</ele>
        <time>2015-11-23T12:21:23Z</time>
      </trkpt>
      <trkpt lat="43.98284" lon="5.08797">
        <ele>182.31</ele>
        <time>2015-11-23T12:21:38Z</time>
      </trkpt>
      <trkpt lat="43.98288" lon="5.08795">
        <ele>181.83</ele>
        <time>2015-11-23T12:21:43Z</time>
      </trkpt>
      <trkpt lat="43.98299" lon="5.08788">
        <ele>181.83</ele>
        <time>2015-11-23T12:21:57Z</time>
      </trkpt>
      <trkpt lat="43.983" lon="5.08789">
        <ele>181.83</ele>
        <time>2015-11-23T12:21:58Z</time>
      </trkpt>
      <trkpt lat="43.98306" lon="5.088">
        <ele>182.31</ele>
        <time>2015-11-23T12:22:11Z</time>
      </trkpt>
      <trkpt lat="43.98313" lon="5.08813">
        <ele>182.79</ele>
        <time>2015-11-23T12:22:23Z</time>
      </trkpt>
      <trkpt lat="43.98321" lon="5.08829">
        <ele>183.75</ele>
        <time>2015-11-23T12:22:39Z</time>
      </trkpt>
      <trkpt lat="43.98325" lon="5.08838">
        <ele>183.75</ele>
        <time>2015-11-23T12:22:50Z</time>
      </trkpt>
      <trkpt lat="43.9833" lon="5.08854">
        <ele>185.19</ele>
        <time>2015-11-23T12:23:04Z</time>
      </trkpt>
      <trkpt lat="43.98331" lon="5.08856">
        <ele>184.71</ele>
        <time>2015-11-23T12:23:06Z</time>
      </trkpt>
      <trkpt lat="43.98337" lon="5.0887">
        <ele>185.19</ele>
        <time>2015-11-23T12:23:19Z</time>
      </trkpt>
      <trkpt lat="43.98337" lon="5.08871">
        <ele>185.19</ele>
        <time>2015-11-23T12:23:20Z</time>
      </trkpt>
      <trkpt lat="43.98338" lon="5.08885">
        <ele>188.56</ele>
        <time>2015-11-23T12:23:35Z</time>
      </trkpt>
      <trkpt lat="43.98339" lon="5.08885">
        <ele>188.56</ele>
        <time>2015-11-23T12:23:38Z</time>
      </trkpt>
      <trkpt lat="43.98353" lon="5.08885">
        <ele>188.08</ele>
        <time>2015-11-23T12:23:52Z</time>
      </trkpt>
      <trkpt lat="43.9836" lon="5.08881">
        <ele>188.08</ele>
        <time>2015-11-23T12:24:00Z</time>
      </trkpt>
      <trkpt lat="43.98371" lon="5.08885">
        <ele>188.56</ele>
        <time>2015-11-23T12:24:13Z</time>
      </trkpt>
      <trkpt lat="43.98382" lon="5.0889">
        <ele>189.52</ele>
        <time>2015-11-23T12:24:25Z</time>
      </trkpt>
      <trkpt lat="43.98392" lon="5.089">
        <ele>190</ele>
        <time>2015-11-23T12:24:38Z</time>
      </trkpt>
      <trkpt lat="43.984" lon="5.08909">
        <ele>190.48</ele>
        <time>2015-11-23T12:24:51Z</time>
      </trkpt>
      <trkpt lat="43.98403" lon="5.08914">
        <ele>190.96</ele>
        <time>2015-11-23T12:24:55Z</time>
      </trkpt>
      <trkpt lat="43.98417" lon="5.08918">
        <ele>190</ele>
        <time>2015-11-23T12:25:12Z</time>
      </trkpt>
      <trkpt lat="43.98426" lon="5.08915">
        <ele>188.08</ele>
        <time>2015-11-23T12:25:25Z</time>
      </trkpt>
      <trkpt lat="43.98429" lon="5.08916">
        <ele>187.11</ele>
        <time>2015-11-23T12:25:30Z</time>
      </trkpt>
      <trkpt lat="43.98443" lon="5.08915">
        <ele>185.67</ele>
        <time>2015-11-23T12:25:44Z</time>
      </trkpt>
      <trkpt lat="43.98452" lon="5.08905">
        <ele>184.23</ele>
        <time>2015-11-23T12:25:56Z</time>
      </trkpt>
      <trkpt lat="43.98458" lon="5.08893">
        <ele>182.31</ele>
        <time>2015-11-23T12:26:10Z</time>
      </trkpt>
      <trkpt lat="43.98466" lon="5.08884">
        <ele>179.42</ele>
        <time>2015-11-23T12:26:25Z</time>
      </trkpt>
      <trkpt lat="43.9847" lon="5.08875">
        <ele>177.98</ele>
        <time>2015-11-23T12:26:33Z</time>
      </trkpt>
      <trkpt lat="43.98478" lon="5.08868">
        <ele>176.54</ele>
        <time>2015-11-23T12:26:47Z</time>
      </trkpt>
      <trkpt lat="43.98485" lon="5.08867">
        <ele>175.1</ele>
        <time>2015-11-23T12:26:59Z</time>
      </trkpt>
      <trkpt lat="43.98496" lon="5.08861">
        <ele>172.21</ele>
        <time>2015-11-23T12:27:16Z</time>
      </trkpt>
      <trkpt lat="43.98499" lon="5.08849">
        <ele>170.77</ele>
        <time>2015-11-23T12:27:29Z</time>
      </trkpt>
      <trkpt lat="43.985" lon="5.08845">
        <ele>170.77</ele>
        <time>2015-11-23T12:27:32Z</time>
      </trkpt>
      <trkpt lat="43.98512" lon="5.08827">
        <ele>168.37</ele>
        <time>2015-11-23T12:27:49Z</time>
      </trkpt>
      <trkpt lat="43.98516" lon="5.08825">
        <ele>167.89</ele>
        <time>2015-11-23T12:27:54Z</time>
      </trkpt>
      <trkpt lat="43.98523" lon="5.08818">
        <ele>167.41</ele>
        <time>2015-11-23T12:28:04Z</time>
      </trkpt>
      <trkpt lat="43.98528" lon="5.08807">
        <ele>166.93</ele>
        <time>2015-11-23T12:28:16Z</time>
      </trkpt>
      <trkpt lat="43.98537" lon="5.088">
        <ele>166.93</ele>
        <time>2015-11-23T12:28:25Z</time>
      </trkpt>
      <trkpt lat="43.98549" lon="5.088">
        <ele>165.96</ele>
        <time>2015-11-23T12:28:41Z</time>
      </trkpt>
      <trkpt lat="43.98556" lon="5.08807">
        <ele>163.56</ele>
        <time>2015-11-23T12:28:56Z</time>
      </trkpt>
      <trkpt lat="43.9856" lon="5.08812">
        <ele>161.64</ele>
        <time>2015-11-23T12:29:12Z</time>
      </trkpt>
      <trkpt lat="43.98566" lon="5.08822">
        <ele>159.72</ele>
        <time>2015-11-23T12:29:26Z</time>
      </trkpt>
      <trkpt lat="43.98576" lon="5.08835">
        <ele>158.27</ele>
        <time>2015-11-23T12:29:42Z</time>
      </trkpt>
      <trkpt lat="43.98583" lon="5.08848">
        <ele>158.27</ele>
        <time>2015-11-23T12:29:55Z</time>
      </trkpt>
      <trkpt lat="43.98596" lon="5.0885">
        <ele>157.79</ele>
        <time>2015-11-23T12:30:10Z</time>
      </trkpt>
      <trkpt lat="43.98601" lon="5.08858">
        <ele>158.27</ele>
        <time>2015-11-23T12:30:21Z</time>
      </trkpt>
      <trkpt lat="43.98608" lon="5.08865">
        <ele>158.75</ele>
        <time>2015-11-23T12:30:38Z</time>
      </trkpt>
      <trkpt lat="43.98611" lon="5.08861">
        <ele>158.27</ele>
        <time>2015-11-23T12:30:57Z</time>
      </trkpt>
      <trkpt lat="43.98623" lon="5.08855">
        <ele>157.79</ele>
        <time>2015-11-23T12:31:10Z</time>
      </trkpt>
      <trkpt lat="43.98637" lon="5.08846">
        <ele>157.31</ele>
        <time>2015-11-23T12:31:27Z</time>
      </trkpt>
      <trkpt lat="43.98645" lon="5.08834">
        <ele>156.35</ele>
        <time>2015-11-23T12:31:43Z</time>
      </trkpt>
      <trkpt lat="43.98655" lon="5.08826">
        <ele>156.35</ele>
        <time>2015-11-23T12:31:57Z</time>
      </trkpt>
      <trkpt lat="43.98658" lon="5.08818">
        <ele>155.87</ele>
        <time>2015-11-23T12:32:13Z</time>
      </trkpt>
      <trkpt lat="43.98652" lon="5.08826">
        <ele>156.83</ele>
        <time>2015-11-23T12:32:27Z</time>
      </trkpt>
      <trkpt lat="43.9865" lon="5.08826">
        <ele>156.35</ele>
        <time>2015-11-23T12:32:29Z</time>
      </trkpt>
      <trkpt lat="43.98643" lon="5.08833">
        <ele>157.31</ele>
        <time>2015-11-23T12:32:42Z</time>
      </trkpt>
      <trkpt lat="43.98632" lon="5.08846">
        <ele>158.27</ele>
        <time>2015-11-23T12:32:58Z</time>
      </trkpt>
      <trkpt lat="43.9863" lon="5.08849">
        <ele>158.75</ele>
        <time>2015-11-23T12:33:01Z</time>
      </trkpt>
      <trkpt lat="43.98626" lon="5.08854">
        <ele>158.75</ele>
        <time>2015-11-23T12:33:06Z</time>
      </trkpt>
      <trkpt lat="43.9861" lon="5.08862">
        <ele>159.24</ele>
        <time>2015-11-23T12:33:23Z</time>
      </trkpt>
      <trkpt lat="43.98602" lon="5.08858">
        <ele>159.24</ele>
        <time>2015-11-23T12:33:38Z</time>
      </trkpt>
      <trkpt lat="43.98591" lon="5.08849">
        <ele>158.75</ele>
        <time>2015-11-23T12:33:54Z</time>
      </trkpt>
      <trkpt lat="43.9858" lon="5.08842">
        <ele>158.75</ele>
        <time>2015-11-23T12:34:12Z</time>
      </trkpt>
      <trkpt lat="43.98576" lon="5.08835">
        <ele>159.24</ele>
        <time>2015-11-23T12:34:26Z</time>
      </trkpt>
      <trkpt lat="43.98571" lon="5.08835">
        <ele>161.16</ele>
        <time>2015-11-23T12:34:39Z</time>
      </trkpt>
      <trkpt lat="43.98563" lon="5.08838">
        <ele>161.64</ele>
        <time>2015-11-23T12:34:47Z</time>
      </trkpt>
      <trkpt lat="43.98563" lon="5.08844">
        <ele>161.64</ele>
        <time>2015-11-23T12:34:54Z</time>
      </trkpt>
      <trkpt lat="43.98566" lon="5.08852">
        <ele>161.64</ele>
        <time>2015-11-23T12:35:07Z</time>
      </trkpt>
      <trkpt lat="43.98568" lon="5.08859">
        <ele>161.16</ele>
        <time>2015-11-23T12:35:21Z</time>
      </trkpt>
      <trkpt lat="43.98577" lon="5.08872">
        <ele>161.16</ele>
        <time>2015-11-23T12:35:35Z</time>
      </trkpt>
      <trkpt lat="43.98586" lon="5.0889">
        <ele>161.64</ele>
        <time>2015-11-23T12:35:49Z</time>
      </trkpt>
      <trkpt lat="43.98592" lon="5.08906">
        <ele>162.6</ele>
        <time>2015-11-23T12:36:03Z</time>
      </trkpt>
      <trkpt lat="43.98596" lon="5.08906">
        <ele>163.56</ele>
        <time>2015-11-23T12:36:08Z</time>
      </trkpt>
      <trkpt lat="43.98609" lon="5.08898">
        <ele>162.6</ele>
        <time>2015-11-23T12:36:22Z</time>
      </trkpt>
      <trkpt lat="43.98621" lon="5.08889">
        <ele>161.64</ele>
        <time>2015-11-23T12:36:37Z</time>
      </trkpt>
      <trkpt lat="43.98625" lon="5.08886">
        <ele>161.64</ele>
        <time>2015-11-23T12:36:41Z</time>
      </trkpt>
      <trkpt lat="43.98635" lon="5.08881">
        <ele>160.68</ele>
        <time>2015-11-23T12:36:50Z</time>
      </trkpt>
      <trkpt lat="43.98646" lon="5.08867">
        <ele>160.2</ele>
        <time>2015-11-23T12:37:05Z</time>
      </trkpt>
      <trkpt lat="43.98654" lon="5.08862">
        <ele>159.24</ele>
        <time>2015-11-23T12:37:20Z</time>
      </trkpt>
      <trkpt lat="43.98657" lon="5.08864">
        <ele>160.68</ele>
        <time>2015-11-23T12:37:34Z</time>
      </trkpt>
      <trkpt lat="43.98659" lon="5.08866">
        <ele>162.6</ele>
        <time>2015-11-23T12:37:44Z</time>
      </trkpt>
      <trkpt lat="43.98666" lon="5.08872">
        <ele>163.56</ele>
        <time>2015-11-23T12:37:57Z</time>
      </trkpt>
      <trkpt lat="43.98667" lon="5.08885">
        <ele>165</ele>
        <time>2015-11-23T12:38:12Z</time>
      </trkpt>
      <trkpt lat="43.98669" lon="5.08897">
        <ele>166.45</ele>
        <time>2015-11-23T12:38:26Z</time>
      </trkpt>
      <trkpt lat="43.98679" lon="5.08908">
        <ele>167.41</ele>
        <time>2015-11-23T12:38:41Z</time>
      </trkpt>
      <trkpt lat="43.98674" lon="5.08917">
        <ele>167.89</ele>
        <time>2015-11-23T12:38:50Z</time>
      </trkpt>
      <trkpt lat="43.98676" lon="5.08925">
        <ele>169.81</ele>
        <time>2015-11-23T12:39:02Z</time>
      </trkpt>
      <trkpt lat="43.98673" lon="5.08921">
        <ele>168.37</ele>
        <time>2015-11-23T12:39:15Z</time>
      </trkpt>
      <trkpt lat="43.98673" lon="5.08918">
        <ele>167.89</ele>
        <time>2015-11-23T12:39:18Z</time>
      </trkpt>
      <trkpt lat="43.98673" lon="5.08914">
        <ele>167.41</ele>
        <time>2015-11-23T12:39:21Z</time>
      </trkpt>
      <trkpt lat="43.98676" lon="5.08906">
        <ele>166.45</ele>
        <time>2015-11-23T12:39:33Z</time>
      </trkpt>
      <trkpt lat="43.98671" lon="5.089">
        <ele>165</ele>
        <time>2015-11-23T12:39:45Z</time>
      </trkpt>
      <trkpt lat="43.98661" lon="5.08898">
        <ele>164.04</ele>
        <time>2015-11-23T12:40:01Z</time>
      </trkpt>
      <trkpt lat="43.98658" lon="5.08885">
        <ele>162.6</ele>
        <time>2015-11-23T12:40:20Z</time>
      </trkpt>
      <trkpt lat="43.98658" lon="5.08876">
        <ele>162.12</ele>
        <time>2015-11-23T12:40:41Z</time>
      </trkpt>
      <trkpt lat="43.98664" lon="5.08871">
        <ele>162.12</ele>
        <time>2015-11-23T12:41:13Z</time>
      </trkpt>
      <trkpt lat="43.98659" lon="5.08877">
        <ele>162.12</ele>
        <time>2015-11-23T12:41:32Z</time>
      </trkpt>
      <trkpt lat="43.98651" lon="5.08887">
        <ele>162.6</ele>
        <time>2015-11-23T12:41:50Z</time>
      </trkpt>
      <trkpt lat="43.98655" lon="5.08897">
        <ele>164.04</ele>
        <time>2015-11-23T12:42:11Z</time>
      </trkpt>
      <trkpt lat="43.98654" lon="5.08899">
        <ele>164.52</ele>
        <time>2015-11-23T12:42:29Z</time>
      </trkpt>
      <trkpt lat="43.98671" lon="5.08903">
        <ele>165</ele>
        <time>2015-11-23T12:42:47Z</time>
      </trkpt>
      <trkpt lat="43.98676" lon="5.08914">
        <ele>167.41</ele>
        <time>2015-11-23T12:43:04Z</time>
      </trkpt>
      <trkpt lat="43.98674" lon="5.08922">
        <ele>167.41</ele>
        <time>2015-11-23T12:43:16Z</time>
      </trkpt>
      <trkpt lat="43.98675" lon="5.08925">
        <ele>168.85</ele>
        <time>2015-11-23T12:43:21Z</time>
      </trkpt>
      <trkpt lat="43.98672" lon="5.08931">
        <ele>169.33</ele>
        <time>2015-11-23T12:43:34Z</time>
      </trkpt>
      <trkpt lat="43.98672" lon="5.0893">
        <ele>169.81</ele>
        <time>2015-11-23T12:43:50Z</time>
      </trkpt>
      <trkpt lat="43.9867" lon="5.08946">
        <ele>170.77</ele>
        <time>2015-11-23T12:44:03Z</time>
      </trkpt>
      <trkpt lat="43.98672" lon="5.08952">
        <ele>171.73</ele>
        <time>2015-11-23T12:44:16Z</time>
      </trkpt>
      <trkpt lat="43.9867" lon="5.0895">
        <ele>171.73</ele>
        <time>2015-11-23T12:44:26Z</time>
      </trkpt>
      <trkpt lat="43.98658" lon="5.08938">
        <ele>170.77</ele>
        <time>2015-11-23T12:44:42Z</time>
      </trkpt>
      <trkpt lat="43.98647" lon="5.08936">
        <ele>171.25</ele>
        <time>2015-11-23T12:44:55Z</time>
      </trkpt>
      <trkpt lat="43.98633" lon="5.0894">
        <ele>171.25</ele>
        <time>2015-11-23T12:45:09Z</time>
      </trkpt>
      <trkpt lat="43.9862" lon="5.08948">
        <ele>171.73</ele>
        <time>2015-11-23T12:45:23Z</time>
      </trkpt>
      <trkpt lat="43.98604" lon="5.08957">
        <ele>172.69</ele>
        <time>2015-11-23T12:45:40Z</time>
      </trkpt>
      <trkpt lat="43.98602" lon="5.08958">
        <ele>172.21</ele>
        <time>2015-11-23T12:45:42Z</time>
      </trkpt>
      <trkpt lat="43.98597" lon="5.08961">
        <ele>172.69</ele>
        <time>2015-11-23T12:45:48Z</time>
      </trkpt>
      <trkpt lat="43.98584" lon="5.08963">
        <ele>171.73</ele>
        <time>2015-11-23T12:46:01Z</time>
      </trkpt>
      <trkpt lat="43.9858" lon="5.08955">
        <ele>169.81</ele>
        <time>2015-11-23T12:46:12Z</time>
      </trkpt>
      <trkpt lat="43.98565" lon="5.08956">
        <ele>169.81</ele>
        <time>2015-11-23T12:46:26Z</time>
      </trkpt>
      <trkpt lat="43.98554" lon="5.08965">
        <ele>170.77</ele>
        <time>2015-11-23T12:46:39Z</time>
      </trkpt>
      <trkpt lat="43.98543" lon="5.08981">
        <ele>173.17</ele>
        <time>2015-11-23T12:46:56Z</time>
      </trkpt>
      <trkpt lat="43.98527" lon="5.08996">
        <ele>173.66</ele>
        <time>2015-11-23T12:47:12Z</time>
      </trkpt>
      <trkpt lat="43.98523" lon="5.08998">
        <ele>173.66</ele>
        <time>2015-11-23T12:47:16Z</time>
      </trkpt>
      <trkpt lat="43.98521" lon="5.08999">
        <ele>173.66</ele>
        <time>2015-11-23T12:47:18Z</time>
      </trkpt>
      <trkpt lat="43.98515" lon="5.09003">
        <ele>174.14</ele>
        <time>2015-11-23T12:47:29Z</time>
      </trkpt>
      <trkpt lat="43.98517" lon="5.09002">
        <ele>173.66</ele>
        <time>2015-11-23T12:47:44Z</time>
      </trkpt>
      <trkpt lat="43.98517" lon="5.09002">
        <ele>174.14</ele>
        <time>2015-11-23T12:48:01Z</time>
      </trkpt>
      <trkpt lat="43.98516" lon="5.09">
        <ele>174.62</ele>
        <time>2015-11-23T12:48:22Z</time>
      </trkpt>
      <trkpt lat="43.98505" lon="5.09014">
        <ele>174.62</ele>
        <time>2015-11-23T12:48:36Z</time>
      </trkpt>
      <trkpt lat="43.98491" lon="5.09025">
        <ele>175.1</ele>
        <time>2015-11-23T12:48:48Z</time>
      </trkpt>
      <trkpt lat="43.98479" lon="5.09036">
        <ele>177.98</ele>
        <time>2015-11-23T12:49:04Z</time>
      </trkpt>
      <trkpt lat="43.98466" lon="5.09046">
        <ele>180.38</ele>
        <time>2015-11-23T12:49:20Z</time>
      </trkpt>
      <trkpt lat="43.98456" lon="5.0906">
        <ele>182.79</ele>
        <time>2015-11-23T12:49:36Z</time>
      </trkpt>
      <trkpt lat="43.98452" lon="5.0907">
        <ele>184.23</ele>
        <time>2015-11-23T12:49:49Z</time>
      </trkpt>
      <trkpt lat="43.98459" lon="5.09078">
        <ele>185.67</ele>
        <time>2015-11-23T12:50:07Z</time>
      </trkpt>
      <trkpt lat="43.98471" lon="5.09083">
        <ele>187.11</ele>
        <time>2015-11-23T12:50:23Z</time>
      </trkpt>
      <trkpt lat="43.98482" lon="5.09088">
        <ele>187.11</ele>
        <time>2015-11-23T12:50:37Z</time>
      </trkpt>
      <trkpt lat="43.98489" lon="5.09088">
        <ele>187.59</ele>
        <time>2015-11-23T12:50:50Z</time>
      </trkpt>
      <trkpt lat="43.98501" lon="5.09089">
        <ele>189.04</ele>
        <time>2015-11-23T12:51:04Z</time>
      </trkpt>
      <trkpt lat="43.98512" lon="5.0909">
        <ele>190</ele>
        <time>2015-11-23T12:51:17Z</time>
      </trkpt>
      <trkpt lat="43.98529" lon="5.09087">
        <ele>190.96</ele>
        <time>2015-11-23T12:51:34Z</time>
      </trkpt>
      <trkpt lat="43.98538" lon="5.09088">
        <ele>191.92</ele>
        <time>2015-11-23T12:51:47Z</time>
      </trkpt>
      <trkpt lat="43.98543" lon="5.09091">
        <ele>192.88</ele>
        <time>2015-11-23T12:51:54Z</time>
      </trkpt>
      <trkpt lat="43.98558" lon="5.09097">
        <ele>194.32</ele>
        <time>2015-11-23T12:52:12Z</time>
      </trkpt>
      <trkpt lat="43.98569" lon="5.09108">
        <ele>193.84</ele>
        <time>2015-11-23T12:52:26Z</time>
      </trkpt>
      <trkpt lat="43.98572" lon="5.0911">
        <ele>194.32</ele>
        <time>2015-11-23T12:52:39Z</time>
      </trkpt>
      <trkpt lat="43.9857" lon="5.09111">
        <ele>193.84</ele>
        <time>2015-11-23T12:53:01Z</time>
      </trkpt>
      <trkpt lat="43.9857" lon="5.09111">
        <ele>193.84</ele>
        <time>2015-11-23T12:53:26Z</time>
      </trkpt>
      <trkpt lat="43.98572" lon="5.09116">
        <ele>193.36</ele>
        <time>2015-11-23T12:53:45Z</time>
      </trkpt>
      <trkpt lat="43.98575" lon="5.09129">
        <ele>191.92</ele>
        <time>2015-11-23T12:53:59Z</time>
      </trkpt>
      <trkpt lat="43.98574" lon="5.09147">
        <ele>190.48</ele>
        <time>2015-11-23T12:54:13Z</time>
      </trkpt>
      <trkpt lat="43.98572" lon="5.09151">
        <ele>190.48</ele>
        <time>2015-11-23T12:54:16Z</time>
      </trkpt>
      <trkpt lat="43.98568" lon="5.09166">
        <ele>189.04</ele>
        <time>2015-11-23T12:54:30Z</time>
      </trkpt>
      <trkpt lat="43.98566" lon="5.09174">
        <ele>189.04</ele>
        <time>2015-11-23T12:54:35Z</time>
      </trkpt>
      <trkpt lat="43.98567" lon="5.09198">
        <ele>187.59</ele>
        <time>2015-11-23T12:54:52Z</time>
      </trkpt>
      <trkpt lat="43.98572" lon="5.0922">
        <ele>186.15</ele>
        <time>2015-11-23T12:55:08Z</time>
      </trkpt>
      <trkpt lat="43.98576" lon="5.09238">
        <ele>185.19</ele>
        <time>2015-11-23T12:55:20Z</time>
      </trkpt>
      <trkpt lat="43.98578" lon="5.09244">
        <ele>184.23</ele>
        <time>2015-11-23T12:55:26Z</time>
      </trkpt>
      <trkpt lat="43.98584" lon="5.09263">
        <ele>183.27</ele>
        <time>2015-11-23T12:55:42Z</time>
      </trkpt>
      <trkpt lat="43.98589" lon="5.09282">
        <ele>181.83</ele>
        <time>2015-11-23T12:56:00Z</time>
      </trkpt>
      <trkpt lat="43.98592" lon="5.09299">
        <ele>181.35</ele>
        <time>2015-11-23T12:56:15Z</time>
      </trkpt>
      <trkpt lat="43.98592" lon="5.0932">
        <ele>180.38</ele>
        <time>2015-11-23T12:56:28Z</time>
      </trkpt>
      <trkpt lat="43.98581" lon="5.09334">
        <ele>179.42</ele>
        <time>2015-11-23T12:56:44Z</time>
      </trkpt>
      <trkpt lat="43.98573" lon="5.0935">
        <ele>177.98</ele>
        <time>2015-11-23T12:57:00Z</time>
      </trkpt>
      <trkpt lat="43.98568" lon="5.09355">
        <ele>177.5</ele>
        <time>2015-11-23T12:57:05Z</time>
      </trkpt>
      <trkpt lat="43.98559" lon="5.0937">
        <ele>177.02</ele>
        <time>2015-11-23T12:57:21Z</time>
      </trkpt>
      <trkpt lat="43.98556" lon="5.09379">
        <ele>176.54</ele>
        <time>2015-11-23T12:57:29Z</time>
      </trkpt>
      <trkpt lat="43.98547" lon="5.09402">
        <ele>176.06</ele>
        <time>2015-11-23T12:57:47Z</time>
      </trkpt>
      <trkpt lat="43.98543" lon="5.09412">
        <ele>176.06</ele>
        <time>2015-11-23T12:57:53Z</time>
      </trkpt>
      <trkpt lat="43.98535" lon="5.09435">
        <ele>176.06</ele>
        <time>2015-11-23T12:58:11Z</time>
      </trkpt>
      <trkpt lat="43.98529" lon="5.09449">
        <ele>175.58</ele>
        <time>2015-11-23T12:58:27Z</time>
      </trkpt>
      <trkpt lat="43.98529" lon="5.09451">
        <ele>175.58</ele>
        <time>2015-11-23T12:58:51Z</time>
      </trkpt>
      <trkpt lat="43.98529" lon="5.09452">
        <ele>175.1</ele>
        <time>2015-11-23T12:59:06Z</time>
      </trkpt>
      <trkpt lat="43.98531" lon="5.09449">
        <ele>175.58</ele>
        <time>2015-11-23T12:59:22Z</time>
      </trkpt>
      <trkpt lat="43.98531" lon="5.09451">
        <ele>175.58</ele>
        <time>2015-11-23T12:59:40Z</time>
      </trkpt>
      <trkpt lat="43.98529" lon="5.09453">
        <ele>175.1</ele>
        <time>2015-11-23T12:59:52Z</time>
      </trkpt>
      <trkpt lat="43.98521" lon="5.09466">
        <ele>175.58</ele>
        <time>2015-11-23T13:00:05Z</time>
      </trkpt>
      <trkpt lat="43.98511" lon="5.09481">
        <ele>177.02</ele>
        <time>2015-11-23T13:00:21Z</time>
      </trkpt>
      <trkpt lat="43.98509" lon="5.09486">
        <ele>177.02</ele>
        <time>2015-11-23T13:00:24Z</time>
      </trkpt>
      <trkpt lat="43.98508" lon="5.09489">
        <ele>177.02</ele>
        <time>2015-11-23T13:00:26Z</time>
      </trkpt>
      <trkpt lat="43.98496" lon="5.0951">
        <ele>177.98</ele>
        <time>2015-11-23T13:00:44Z</time>
      </trkpt>
      <trkpt lat="43.98482" lon="5.09533">
        <ele>178.46</ele>
        <time>2015-11-23T13:01:01Z</time>
      </trkpt>
      <trkpt lat="43.98475" lon="5.09553">
        <ele>178.46</ele>
        <time>2015-11-23T13:01:16Z</time>
      </trkpt>
      <trkpt lat="43.98469" lon="5.09576">
        <ele>178.94</ele>
        <time>2015-11-23T13:01:33Z</time>
      </trkpt>
      <trkpt lat="43.98456" lon="5.09598">
        <ele>181.35</ele>
        <time>2015-11-23T13:01:52Z</time>
      </trkpt>
      <trkpt lat="43.98441" lon="5.09612">
        <ele>182.79</ele>
        <time>2015-11-23T13:02:09Z</time>
      </trkpt>
      <trkpt lat="43.98429" lon="5.09619">
        <ele>185.19</ele>
        <time>2015-11-23T13:02:23Z</time>
      </trkpt>
      <trkpt lat="43.98417" lon="5.09609">
        <ele>186.63</ele>
        <time>2015-11-23T13:02:38Z</time>
      </trkpt>
      <trkpt lat="43.98405" lon="5.09598">
        <ele>189.52</ele>
        <time>2015-11-23T13:02:52Z</time>
      </trkpt>
      <trkpt lat="43.98394" lon="5.09588">
        <ele>192.88</ele>
        <time>2015-11-23T13:03:07Z</time>
      </trkpt>
      <trkpt lat="43.98378" lon="5.09575">
        <ele>195.28</ele>
        <time>2015-11-23T13:03:25Z</time>
      </trkpt>
      <trkpt lat="43.9837" lon="5.09562">
        <ele>198.17</ele>
        <time>2015-11-23T13:03:36Z</time>
      </trkpt>
      <trkpt lat="43.98363" lon="5.09554">
        <ele>200.57</ele>
        <time>2015-11-23T13:03:51Z</time>
      </trkpt>
      <trkpt lat="43.98364" lon="5.09555">
        <ele>200.57</ele>
        <time>2015-11-23T13:04:10Z</time>
      </trkpt>
      <trkpt lat="43.98366" lon="5.09556">
        <ele>200.57</ele>
        <time>2015-11-23T13:04:38Z</time>
      </trkpt>
      <trkpt lat="43.98366" lon="5.09554">
        <ele>200.09</ele>
        <time>2015-11-23T13:05:07Z</time>
      </trkpt>
      <trkpt lat="43.98362" lon="5.09564">
        <ele>201.53</ele>
        <time>2015-11-23T13:05:22Z</time>
      </trkpt>
      <trkpt lat="43.98361" lon="5.09585">
        <ele>202.98</ele>
        <time>2015-11-23T13:05:35Z</time>
      </trkpt>
      <trkpt lat="43.98359" lon="5.09589">
        <ele>203.46</ele>
        <time>2015-11-23T13:05:39Z</time>
      </trkpt>
      <trkpt lat="43.98351" lon="5.09611">
        <ele>205.86</ele>
        <time>2015-11-23T13:05:55Z</time>
      </trkpt>
      <trkpt lat="43.98344" lon="5.09627">
        <ele>209.22</ele>
        <time>2015-11-23T13:06:10Z</time>
      </trkpt>
      <trkpt lat="43.98343" lon="5.09641">
        <ele>211.15</ele>
        <time>2015-11-23T13:06:24Z</time>
      </trkpt>
      <trkpt lat="43.98344" lon="5.09641">
        <ele>211.15</ele>
        <time>2015-11-23T13:06:41Z</time>
      </trkpt>
      <trkpt lat="43.98344" lon="5.09641">
        <ele>211.15</ele>
        <time>2015-11-23T13:07:00Z</time>
      </trkpt>
      <trkpt lat="43.98346" lon="5.09645">
        <ele>212.11</ele>
        <time>2015-11-23T13:07:13Z</time>
      </trkpt>
      <trkpt lat="43.98347" lon="5.0965">
        <ele>212.59</ele>
        <time>2015-11-23T13:07:16Z</time>
      </trkpt>
      <trkpt lat="43.98349" lon="5.09661">
        <ele>214.03</ele>
        <time>2015-11-23T13:07:24Z</time>
      </trkpt>
      <trkpt lat="43.9835" lon="5.0968">
        <ele>216.43</ele>
        <time>2015-11-23T13:07:39Z</time>
      </trkpt>
      <trkpt lat="43.98346" lon="5.09696">
        <ele>218.84</ele>
        <time>2015-11-23T13:07:51Z</time>
      </trkpt>
      <trkpt lat="43.98339" lon="5.09703">
        <ele>221.24</ele>
        <time>2015-11-23T13:08:00Z</time>
      </trkpt>
      <trkpt lat="43.98336" lon="5.09701">
        <ele>220.76</ele>
        <time>2015-11-23T13:08:05Z</time>
      </trkpt>
      <trkpt lat="43.98327" lon="5.09689">
        <ele>222.68</ele>
        <time>2015-11-23T13:08:20Z</time>
      </trkpt>
      <trkpt lat="43.98316" lon="5.09678">
        <ele>223.64</ele>
        <time>2015-11-23T13:08:35Z</time>
      </trkpt>
      <trkpt lat="43.98304" lon="5.09673">
        <ele>225.57</ele>
        <time>2015-11-23T13:08:50Z</time>
      </trkpt>
      <trkpt lat="43.98294" lon="5.09671">
        <ele>227.49</ele>
        <time>2015-11-23T13:09:04Z</time>
      </trkpt>
      <trkpt lat="43.98284" lon="5.09669">
        <ele>229.89</ele>
        <time>2015-11-23T13:09:20Z</time>
      </trkpt>
      <trkpt lat="43.98283" lon="5.09668">
        <ele>230.37</ele>
        <time>2015-11-23T13:09:35Z</time>
      </trkpt>
      <trkpt lat="43.98284" lon="5.09665">
        <ele>230.37</ele>
        <time>2015-11-23T13:09:56Z</time>
      </trkpt>
      <trkpt lat="43.98281" lon="5.09662">
        <ele>230.37</ele>
        <time>2015-11-23T13:10:20Z</time>
      </trkpt>
      <trkpt lat="43.98274" lon="5.0966">
        <ele>232.3</ele>
        <time>2015-11-23T13:10:35Z</time>
      </trkpt>
      <trkpt lat="43.98268" lon="5.09663">
        <ele>234.22</ele>
        <time>2015-11-23T13:10:49Z</time>
      </trkpt>
      <trkpt lat="43.98262" lon="5.09667">
        <ele>236.14</ele>
        <time>2015-11-23T13:11:02Z</time>
      </trkpt>
      <trkpt lat="43.98258" lon="5.09671">
        <ele>236.62</ele>
        <time>2015-11-23T13:11:18Z</time>
      </trkpt>
      <trkpt lat="43.98248" lon="5.09676">
        <ele>238.54</ele>
        <time>2015-11-23T13:11:34Z</time>
      </trkpt>
      <trkpt lat="43.98245" lon="5.09672">
        <ele>239.99</ele>
        <time>2015-11-23T13:11:47Z</time>
      </trkpt>
      <trkpt lat="43.98238" lon="5.09669">
        <ele>241.43</ele>
        <time>2015-11-23T13:12:01Z</time>
      </trkpt>
      <trkpt lat="43.98231" lon="5.09673">
        <ele>244.79</ele>
        <time>2015-11-23T13:12:19Z</time>
      </trkpt>
      <trkpt lat="43.9823" lon="5.09675">
        <ele>244.79</ele>
        <time>2015-11-23T13:12:21Z</time>
      </trkpt>
      <trkpt lat="43.98224" lon="5.09686">
        <ele>243.35</ele>
        <time>2015-11-23T13:12:36Z</time>
      </trkpt>
      <trkpt lat="43.98212" lon="5.09702">
        <ele>242.39</ele>
        <time>2015-11-23T13:12:52Z</time>
      </trkpt>
      <trkpt lat="43.9821" lon="5.09707">
        <ele>242.87</ele>
        <time>2015-11-23T13:12:56Z</time>
      </trkpt>
      <trkpt lat="43.98199" lon="5.09722">
        <ele>243.35</ele>
        <time>2015-11-23T13:13:13Z</time>
      </trkpt>
      <trkpt lat="43.98189" lon="5.09741">
        <ele>241.91</ele>
        <time>2015-11-23T13:13:29Z</time>
      </trkpt>
      <trkpt lat="43.9818" lon="5.09754">
        <ele>240.47</ele>
        <time>2015-11-23T13:13:44Z</time>
      </trkpt>
      <trkpt lat="43.98173" lon="5.09764">
        <ele>239.02</ele>
        <time>2015-11-23T13:13:57Z</time>
      </trkpt>
      <trkpt lat="43.98167" lon="5.09773">
        <ele>237.58</ele>
        <time>2015-11-23T13:14:12Z</time>
      </trkpt>
      <trkpt lat="43.98159" lon="5.09783">
        <ele>235.66</ele>
        <time>2015-11-23T13:14:28Z</time>
      </trkpt>
      <trkpt lat="43.98152" lon="5.09795">
        <ele>234.22</ele>
        <time>2015-11-23T13:14:43Z</time>
      </trkpt>
      <trkpt lat="43.98144" lon="5.09801">
        <ele>232.3</ele>
        <time>2015-11-23T13:15:00Z</time>
      </trkpt>
      <trkpt lat="43.98138" lon="5.09807">
        <ele>229.89</ele>
        <time>2015-11-23T13:15:15Z</time>
      </trkpt>
      <trkpt lat="43.98128" lon="5.09811">
        <ele>227.97</ele>
        <time>2015-11-23T13:15:31Z</time>
      </trkpt>
      <trkpt lat="43.98119" lon="5.09819">
        <ele>225.57</ele>
        <time>2015-11-23T13:15:48Z</time>
      </trkpt>
      <trkpt lat="43.98124" lon="5.09831">
        <ele>223.64</ele>
        <time>2015-11-23T13:16:03Z</time>
      </trkpt>
      <trkpt lat="43.98128" lon="5.09838">
        <ele>222.2</ele>
        <time>2015-11-23T13:16:19Z</time>
      </trkpt>
      <trkpt lat="43.98132" lon="5.09844">
        <ele>220.28</ele>
        <time>2015-11-23T13:16:32Z</time>
      </trkpt>
      <trkpt lat="43.98137" lon="5.09856">
        <ele>217.88</ele>
        <time>2015-11-23T13:16:48Z</time>
      </trkpt>
      <trkpt lat="43.98145" lon="5.09867">
        <ele>215.47</ele>
        <time>2015-11-23T13:17:05Z</time>
      </trkpt>
      <trkpt lat="43.98151" lon="5.09878">
        <ele>213.07</ele>
        <time>2015-11-23T13:17:21Z</time>
      </trkpt>
      <trkpt lat="43.98155" lon="5.09892">
        <ele>211.15</ele>
        <time>2015-11-23T13:17:39Z</time>
      </trkpt>
      <trkpt lat="43.98157" lon="5.09903">
        <ele>210.19</ele>
        <time>2015-11-23T13:17:54Z</time>
      </trkpt>
      <trkpt lat="43.9816" lon="5.09916">
        <ele>208.26</ele>
        <time>2015-11-23T13:18:10Z</time>
      </trkpt>
      <trkpt lat="43.98163" lon="5.09928">
        <ele>206.34</ele>
        <time>2015-11-23T13:18:25Z</time>
      </trkpt>
      <trkpt lat="43.9817" lon="5.09936">
        <ele>204.42</ele>
        <time>2015-11-23T13:18:40Z</time>
      </trkpt>
      <trkpt lat="43.98175" lon="5.09946">
        <ele>202.98</ele>
        <time>2015-11-23T13:18:55Z</time>
      </trkpt>
      <trkpt lat="43.98173" lon="5.09955">
        <ele>201.53</ele>
        <time>2015-11-23T13:19:07Z</time>
      </trkpt>
      <trkpt lat="43.98176" lon="5.09965">
        <ele>199.61</ele>
        <time>2015-11-23T13:19:22Z</time>
      </trkpt>
      <trkpt lat="43.98179" lon="5.09975">
        <ele>198.65</ele>
        <time>2015-11-23T13:19:34Z</time>
      </trkpt>
      <trkpt lat="43.98184" lon="5.09984">
        <ele>197.69</ele>
        <time>2015-11-23T13:19:49Z</time>
      </trkpt>
      <trkpt lat="43.98189" lon="5.09986">
        <ele>196.73</ele>
        <time>2015-11-23T13:20:06Z</time>
      </trkpt>
      <trkpt lat="43.98191" lon="5.09985">
        <ele>197.21</ele>
        <time>2015-11-23T13:20:31Z</time>
      </trkpt>
      <trkpt lat="43.98195" lon="5.09986">
        <ele>196.73</ele>
        <time>2015-11-23T13:20:57Z</time>
      </trkpt>
      <trkpt lat="43.98193" lon="5.09987">
        <ele>196.73</ele>
        <time>2015-11-23T13:21:22Z</time>
      </trkpt>
      <trkpt lat="43.98192" lon="5.09994">
        <ele>196.25</ele>
        <time>2015-11-23T13:21:36Z</time>
      </trkpt>
      <trkpt lat="43.98196" lon="5.10005">
        <ele>194.32</ele>
        <time>2015-11-23T13:21:50Z</time>
      </trkpt>
      <trkpt lat="43.98197" lon="5.10018">
        <ele>191.92</ele>
        <time>2015-11-23T13:22:06Z</time>
      </trkpt>
      <trkpt lat="43.98195" lon="5.10034">
        <ele>189.52</ele>
        <time>2015-11-23T13:22:21Z</time>
      </trkpt>
      <trkpt lat="43.98188" lon="5.1005">
        <ele>187.11</ele>
        <time>2015-11-23T13:22:40Z</time>
      </trkpt>
      <trkpt lat="43.98183" lon="5.10061">
        <ele>188.08</ele>
        <time>2015-11-23T13:22:57Z</time>
      </trkpt>
      <trkpt lat="43.9817" lon="5.10072">
        <ele>190.96</ele>
        <time>2015-11-23T13:23:15Z</time>
      </trkpt>
      <trkpt lat="43.98163" lon="5.10083">
        <ele>192.88</ele>
        <time>2015-11-23T13:23:29Z</time>
      </trkpt>
      <trkpt lat="43.98152" lon="5.10097">
        <ele>195.28</ele>
        <time>2015-11-23T13:23:46Z</time>
      </trkpt>
      <trkpt lat="43.98145" lon="5.10103">
        <ele>196.73</ele>
        <time>2015-11-23T13:23:59Z</time>
      </trkpt>
      <trkpt lat="43.98141" lon="5.10115">
        <ele>198.65</ele>
        <time>2015-11-23T13:24:15Z</time>
      </trkpt>
      <trkpt lat="43.98141" lon="5.10122">
        <ele>199.61</ele>
        <time>2015-11-23T13:24:32Z</time>
      </trkpt>
      <trkpt lat="43.98138" lon="5.10127">
        <ele>200.09</ele>
        <time>2015-11-23T13:24:44Z</time>
      </trkpt>
      <trkpt lat="43.98124" lon="5.10143">
        <ele>200.57</ele>
        <time>2015-11-23T13:24:59Z</time>
      </trkpt>
      <trkpt lat="43.9811" lon="5.10153">
        <ele>201.53</ele>
        <time>2015-11-23T13:25:16Z</time>
      </trkpt>
      <trkpt lat="43.98098" lon="5.10167">
        <ele>202.01</ele>
        <time>2015-11-23T13:25:29Z</time>
      </trkpt>
      <trkpt lat="43.98089" lon="5.10181">
        <ele>202.98</ele>
        <time>2015-11-23T13:25:45Z</time>
      </trkpt>
      <trkpt lat="43.9808" lon="5.10196">
        <ele>205.38</ele>
        <time>2015-11-23T13:26:00Z</time>
      </trkpt>
      <trkpt lat="43.98078" lon="5.10214">
        <ele>207.78</ele>
        <time>2015-11-23T13:26:17Z</time>
      </trkpt>
      <trkpt lat="43.98097" lon="5.10217">
        <ele>210.67</ele>
        <time>2015-11-23T13:26:36Z</time>
      </trkpt>
      <trkpt lat="43.98095" lon="5.10224">
        <ele>212.11</ele>
        <time>2015-11-23T13:26:53Z</time>
      </trkpt>
      <trkpt lat="43.98095" lon="5.10223">
        <ele>212.59</ele>
        <time>2015-11-23T13:27:13Z</time>
      </trkpt>
      <trkpt lat="43.98087" lon="5.10229">
        <ele>212.59</ele>
        <time>2015-11-23T13:27:27Z</time>
      </trkpt>
      <trkpt lat="43.98071" lon="5.10251">
        <ele>211.15</ele>
        <time>2015-11-23T13:27:46Z</time>
      </trkpt>
      <trkpt lat="43.98062" lon="5.10276">
        <ele>211.63</ele>
        <time>2015-11-23T13:28:05Z</time>
      </trkpt>
      <trkpt lat="43.98053" lon="5.1029">
        <ele>212.11</ele>
        <time>2015-11-23T13:28:20Z</time>
      </trkpt>
      <trkpt lat="43.98043" lon="5.10304">
        <ele>211.63</ele>
        <time>2015-11-23T13:28:35Z</time>
      </trkpt>
      <trkpt lat="43.98032" lon="5.10316">
        <ele>212.59</ele>
        <time>2015-11-23T13:28:50Z</time>
      </trkpt>
      <trkpt lat="43.98022" lon="5.10326">
        <ele>213.55</ele>
        <time>2015-11-23T13:29:05Z</time>
      </trkpt>
      <trkpt lat="43.98013" lon="5.1034">
        <ele>215.47</ele>
        <time>2015-11-23T13:29:21Z</time>
      </trkpt>
      <trkpt lat="43.98008" lon="5.10354">
        <ele>216.43</ele>
        <time>2015-11-23T13:29:35Z</time>
      </trkpt>
      <trkpt lat="43.98006" lon="5.10365">
        <ele>217.88</ele>
        <time>2015-11-23T13:29:48Z</time>
      </trkpt>
      <trkpt lat="43.98001" lon="5.1038">
        <ele>219.32</ele>
        <time>2015-11-23T13:30:07Z</time>
      </trkpt>
      <trkpt lat="43.97997" lon="5.10396">
        <ele>221.24</ele>
        <time>2015-11-23T13:30:20Z</time>
      </trkpt>
      <trkpt lat="43.97992" lon="5.10414">
        <ele>222.68</ele>
        <time>2015-11-23T13:30:36Z</time>
      </trkpt>
      <trkpt lat="43.97986" lon="5.10428">
        <ele>224.61</ele>
        <time>2015-11-23T13:30:51Z</time>
      </trkpt>
      <trkpt lat="43.9798" lon="5.10439">
        <ele>226.05</ele>
        <time>2015-11-23T13:31:05Z</time>
      </trkpt>
      <trkpt lat="43.97975" lon="5.1045">
        <ele>227.01</ele>
        <time>2015-11-23T13:31:20Z</time>
      </trkpt>
      <trkpt lat="43.97974" lon="5.1045">
        <ele>227.49</ele>
        <time>2015-11-23T13:31:40Z</time>
      </trkpt>
      <trkpt lat="43.97974" lon="5.10452">
        <ele>227.97</ele>
        <time>2015-11-23T13:31:52Z</time>
      </trkpt>
      <trkpt lat="43.97967" lon="5.10466">
        <ele>229.41</ele>
        <time>2015-11-23T13:32:08Z</time>
      </trkpt>
      <trkpt lat="43.97961" lon="5.10478">
        <ele>231.81</ele>
        <time>2015-11-23T13:32:24Z</time>
      </trkpt>
      <trkpt lat="43.97953" lon="5.10493">
        <ele>233.74</ele>
        <time>2015-11-23T13:32:42Z</time>
      </trkpt>
      <trkpt lat="43.97945" lon="5.10504">
        <ele>235.66</ele>
        <time>2015-11-23T13:32:56Z</time>
      </trkpt>
      <trkpt lat="43.97939" lon="5.10515">
        <ele>237.58</ele>
        <time>2015-11-23T13:33:11Z</time>
      </trkpt>
      <trkpt lat="43.97934" lon="5.10529">
        <ele>239.99</ele>
        <time>2015-11-23T13:33:29Z</time>
      </trkpt>
      <trkpt lat="43.97933" lon="5.10541">
        <ele>242.39</ele>
        <time>2015-11-23T13:33:46Z</time>
      </trkpt>
      <trkpt lat="43.97933" lon="5.10548">
        <ele>245.27</ele>
        <time>2015-11-23T13:34:01Z</time>
      </trkpt>
      <trkpt lat="43.97934" lon="5.10555">
        <ele>246.23</ele>
        <time>2015-11-23T13:34:17Z</time>
      </trkpt>
      <trkpt lat="43.97933" lon="5.10555">
        <ele>246.23</ele>
        <time>2015-11-23T13:34:32Z</time>
      </trkpt>
      <trkpt lat="43.97931" lon="5.10558">
        <ele>246.23</ele>
        <time>2015-11-23T13:34:53Z</time>
      </trkpt>
      <trkpt lat="43.97932" lon="5.10552">
        <ele>246.23</ele>
        <time>2015-11-23T13:35:16Z</time>
      </trkpt>
      <trkpt lat="43.97932" lon="5.10555">
        <ele>246.23</ele>
        <time>2015-11-23T13:35:32Z</time>
      </trkpt>
      <trkpt lat="43.97927" lon="5.10573">
        <ele>247.68</ele>
        <time>2015-11-23T13:35:49Z</time>
      </trkpt>
      <trkpt lat="43.97922" lon="5.10587">
        <ele>248.64</ele>
        <time>2015-11-23T13:36:02Z</time>
      </trkpt>
      <trkpt lat="43.97922" lon="5.10592">
        <ele>249.12</ele>
        <time>2015-11-23T13:36:15Z</time>
      </trkpt>
      <trkpt lat="43.97921" lon="5.106">
        <ele>250.56</ele>
        <time>2015-11-23T13:36:30Z</time>
      </trkpt>
      <trkpt lat="43.97917" lon="5.10614">
        <ele>252.96</ele>
        <time>2015-11-23T13:36:44Z</time>
      </trkpt>
      <trkpt lat="43.97915" lon="5.1062">
        <ele>254.41</ele>
        <time>2015-11-23T13:36:53Z</time>
      </trkpt>
      <trkpt lat="43.97909" lon="5.10638">
        <ele>257.29</ele>
        <time>2015-11-23T13:37:09Z</time>
      </trkpt>
      <trkpt lat="43.97906" lon="5.10648">
        <ele>258.73</ele>
        <time>2015-11-23T13:37:25Z</time>
      </trkpt>
      <trkpt lat="43.97905" lon="5.10665">
        <ele>260.17</ele>
        <time>2015-11-23T13:37:39Z</time>
      </trkpt>
      <trkpt lat="43.97901" lon="5.10688">
        <ele>263.06</ele>
        <time>2015-11-23T13:37:58Z</time>
      </trkpt>
      <trkpt lat="43.97896" lon="5.10698">
        <ele>263.06</ele>
        <time>2015-11-23T13:38:11Z</time>
      </trkpt>
      <trkpt lat="43.97891" lon="5.10702">
        <ele>261.62</ele>
        <time>2015-11-23T13:38:27Z</time>
      </trkpt>
      <trkpt lat="43.9789" lon="5.10703">
        <ele>261.14</ele>
        <time>2015-11-23T13:38:45Z</time>
      </trkpt>
      <trkpt lat="43.97892" lon="5.10707">
        <ele>261.14</ele>
        <time>2015-11-23T13:39:11Z</time>
      </trkpt>
      <trkpt lat="43.97892" lon="5.10703">
        <ele>261.14</ele>
        <time>2015-11-23T13:39:42Z</time>
      </trkpt>
      <trkpt lat="43.97888" lon="5.10704">
        <ele>260.65</ele>
        <time>2015-11-23T13:40:02Z</time>
      </trkpt>
      <trkpt lat="43.9789" lon="5.10704">
        <ele>260.65</ele>
        <time>2015-11-23T13:40:24Z</time>
      </trkpt>
      <trkpt lat="43.97874" lon="5.10713">
        <ele>257.77</ele>
        <time>2015-11-23T13:40:39Z</time>
      </trkpt>
      <trkpt lat="43.97868" lon="5.10718">
        <ele>257.29</ele>
        <time>2015-11-23T13:40:57Z</time>
      </trkpt>
      <trkpt lat="43.97862" lon="5.10701">
        <ele>254.89</ele>
        <time>2015-11-23T13:41:10Z</time>
      </trkpt>
      <trkpt lat="43.97859" lon="5.10695">
        <ele>254.89</ele>
        <time>2015-11-23T13:41:15Z</time>
      </trkpt>
      <trkpt lat="43.97856" lon="5.107">
        <ele>255.37</ele>
        <time>2015-11-23T13:41:21Z</time>
      </trkpt>
      <trkpt lat="43.97852" lon="5.10702">
        <ele>256.33</ele>
        <time>2015-11-23T13:41:33Z</time>
      </trkpt>
      <trkpt lat="43.97844" lon="5.10711">
        <ele>256.33</ele>
        <time>2015-11-23T13:41:49Z</time>
      </trkpt>
      <trkpt lat="43.97843" lon="5.10712">
        <ele>256.33</ele>
        <time>2015-11-23T13:41:51Z</time>
      </trkpt>
      <trkpt lat="43.97839" lon="5.10721">
        <ele>256.81</ele>
        <time>2015-11-23T13:42:03Z</time>
      </trkpt>
      <trkpt lat="43.97836" lon="5.10734">
        <ele>255.85</ele>
        <time>2015-11-23T13:42:17Z</time>
      </trkpt>
      <trkpt lat="43.97834" lon="5.10741">
        <ele>254.41</ele>
        <time>2015-11-23T13:42:31Z</time>
      </trkpt>
      <trkpt lat="43.97828" lon="5.10756">
        <ele>253.44</ele>
        <time>2015-11-23T13:42:46Z</time>
      </trkpt>
      <trkpt lat="43.97823" lon="5.10764">
        <ele>254.41</ele>
        <time>2015-11-23T13:42:52Z</time>
      </trkpt>
      <trkpt lat="43.97821" lon="5.10769">
        <ele>254.89</ele>
        <time>2015-11-23T13:42:56Z</time>
      </trkpt>
      <trkpt lat="43.97819" lon="5.10781">
        <ele>255.37</ele>
        <time>2015-11-23T13:43:04Z</time>
      </trkpt>
      <trkpt lat="43.97818" lon="5.10783">
        <ele>255.85</ele>
        <time>2015-11-23T13:43:06Z</time>
      </trkpt>
      <trkpt lat="43.97813" lon="5.10807">
        <ele>257.29</ele>
        <time>2015-11-23T13:43:22Z</time>
      </trkpt>
      <trkpt lat="43.9781" lon="5.10823">
        <ele>258.25</ele>
        <time>2015-11-23T13:43:37Z</time>
      </trkpt>
      <trkpt lat="43.97805" lon="5.10839">
        <ele>259.69</ele>
        <time>2015-11-23T13:43:52Z</time>
      </trkpt>
      <trkpt lat="43.97801" lon="5.10855">
        <ele>261.14</ele>
        <time>2015-11-23T13:44:09Z</time>
      </trkpt>
      <trkpt lat="43.97801" lon="5.10865">
        <ele>262.58</ele>
        <time>2015-11-23T13:44:23Z</time>
      </trkpt>
      <trkpt lat="43.97808" lon="5.10863">
        <ele>263.54</ele>
        <time>2015-11-23T13:44:38Z</time>
      </trkpt>
      <trkpt lat="43.97818" lon="5.10849">
        <ele>265.46</ele>
        <time>2015-11-23T13:44:54Z</time>
      </trkpt>
      <trkpt lat="43.97819" lon="5.10846">
        <ele>265.94</ele>
        <time>2015-11-23T13:45:11Z</time>
      </trkpt>
      <trkpt lat="43.97819" lon="5.10842">
        <ele>266.42</ele>
        <time>2015-11-23T13:45:29Z</time>
      </trkpt>
      <trkpt lat="43.9782" lon="5.10843">
        <ele>265.94</ele>
        <time>2015-11-23T13:45:41Z</time>
      </trkpt>
      <trkpt lat="43.97818" lon="5.10845">
        <ele>265.94</ele>
        <time>2015-11-23T13:45:52Z</time>
      </trkpt>
      <trkpt lat="43.97818" lon="5.10844">
        <ele>265.94</ele>
        <time>2015-11-23T13:46:06Z</time>
      </trkpt>
      <trkpt lat="43.97817" lon="5.10845">
        <ele>265.94</ele>
        <time>2015-11-23T13:46:22Z</time>
      </trkpt>
    </trkseg>
  </trk>
</gpx>